Home > Products > Valid Products > TAF

000
FTUS42 KRAH 030612 AAA
TAFRDU
TAF AMD
KRDU 030612Z 0306/0406 VRB03KT P6SM FEW050 BKN250
      TEMPO 0306/0310 3SM BR SCT250
     FM031800 35005KT P6SM SCT070 BKN250=



000
FTUS42 KRAH 030612 AAA
TAFRDU
TAF AMD
KRDU 030612Z 0306/0406 VRB03KT P6SM FEW050 BKN250
      TEMPO 0306/0310 3SM BR SCT250
     FM031800 35005KT P6SM SCT070 BKN250=



000
FTUS42 KRAH 030612 AAA
TAFRDU
TAF AMD
KRDU 030612Z 0306/0406 VRB03KT P6SM FEW050 BKN250
      TEMPO 0306/0310 3SM BR SCT250
     FM031800 35005KT P6SM SCT070 BKN250=



000
FTUS42 KRAH 030612 AAA
TAFRDU
TAF AMD
KRDU 030612Z 0306/0406 VRB03KT P6SM FEW050 BKN250
      TEMPO 0306/0310 3SM BR SCT250
     FM031800 35005KT P6SM SCT070 BKN250=



000
FTUS42 KRAH 030527
TAFRWI
TAF
KRWI 030527Z 0306/0406 VRB03KT 6SM BR BKN200
      TEMPO 0306/0307 3SM BR SCT250
     FM030800 VRB02KT 2SM BR FEW250
      TEMPO 0308/0311 1/2SM FG VV002
     FM031300 32003KT P6SM FEW010 SCT250=



000
FTUS42 KRAH 030527
TAFINT
TAF
KINT 030527Z 0306/0406 34005KT P6SM FEW060 SCT250=



000
FTUS42 KRAH 030527
TAFGSO
TAF
KGSO 030527Z 0306/0406 34005KT P6SM FEW060 SCT250=



000
FTUS42 KRAH 030527
TAFFAY
TAF
KFAY 030527Z 0306/0406 VRB05KT P6SM FEW060 BKN250
      TEMPO 0306/0308 VRB12G22KT 5SM -SHRA BKN035
     FM030900 VRB04KT P6SM FEW060 SCT250
     FM031800 29007KT P6SM SCT060 BKN250=



000
FTUS42 KRAH 030527
TAFRDU
TAF
KRDU 030527Z 0306/0406 VRB03KT P6SM FEW050 BKN250
      TEMPO 0308/0312 3SM BR SCT250
     FM031800 35005KT P6SM SCT070 BKN250=



000
FTUS42 KRAH 030527
TAFGSO
TAF
KGSO 030527Z 0306/0406 34005KT P6SM FEW060 SCT250=



000
FTUS42 KRAH 030527
TAFFAY
TAF
KFAY 030527Z 0306/0406 VRB05KT P6SM FEW060 BKN250
      TEMPO 0306/0308 VRB12G22KT 5SM -SHRA BKN035
     FM030900 VRB04KT P6SM FEW060 SCT250
     FM031800 29007KT P6SM SCT060 BKN250=



000
FTUS42 KRAH 030527
TAFINT
TAF
KINT 030527Z 0306/0406 34005KT P6SM FEW060 SCT250=



000
FTUS42 KRAH 030527
TAFRWI
TAF
KRWI 030527Z 0306/0406 VRB03KT 6SM BR BKN200
      TEMPO 0306/0307 3SM BR SCT250
     FM030800 VRB02KT 2SM BR FEW250
      TEMPO 0308/0311 1/2SM FG VV002
     FM031300 32003KT P6SM FEW010 SCT250=



000
FTUS42 KRAH 030527
TAFRDU
TAF
KRDU 030527Z 0306/0406 VRB03KT P6SM FEW050 BKN250
      TEMPO 0308/0312 3SM BR SCT250
     FM031800 35005KT P6SM SCT070 BKN250=



000
FTUS42 KRAH 030450 AAC
TAFRDU
TAF AMD
KRDU 030450Z 0305/0324 VRB05KT P6SM VCTS BKN050CB
     FM030600 VRB05KT P6SM BKN200=



000
FTUS42 KRAH 030450 AAC
TAFRDU
TAF AMD
KRDU 030450Z 0305/0324 VRB05KT P6SM VCTS BKN050CB
     FM030600 VRB05KT P6SM BKN200=



000
FTUS42 KRAH 030415 AAE
TAFRWI
TAF AMD
KRWI 030415Z 0304/0324 VRB05KT 6SM BR SCT020 BKN100
     FM030600 VRB05KT P6SM BKN200=



000
FTUS42 KRAH 030415 AAE
TAFRWI
TAF AMD
KRWI 030415Z 0304/0324 VRB05KT 6SM BR SCT020 BKN100
     FM030600 VRB05KT P6SM BKN200=



000
FTUS42 KRAH 030415 AAE
TAFRWI
TAF AMD
KRWI 030415Z 0304/0324 VRB05KT 6SM BR SCT020 BKN100
     FM030600 VRB05KT P6SM BKN200=



000
FTUS42 KRAH 030415 AAE
TAFRWI
TAF AMD
KRWI 030415Z 0304/0324 VRB05KT 6SM BR SCT020 BKN100
     FM030600 VRB05KT P6SM BKN200=



000
FTUS42 KRAH 030402 AAD
TAFRWI
TAF AMD
KRWI 030402Z 0304/0324 VRB06KT 3SM -TSRA FEW020 BKN025CB
     FM030430 VRB05KT 6SM BR SCT050 BKN250
      TEMPO 0305/0306 VRB10G15KT 3SM SHRA BKN035
     FM030600 VRB05KT P6SM BKN200=



000
FTUS42 KRAH 030402 AAD
TAFRWI
TAF AMD
KRWI 030402Z 0304/0324 VRB06KT 3SM -TSRA FEW020 BKN025CB
     FM030430 VRB05KT 6SM BR SCT050 BKN250
      TEMPO 0305/0306 VRB10G15KT 3SM SHRA BKN035
     FM030600 VRB05KT P6SM BKN200=



000
FTUS42 KRAH 030402 AAD
TAFRWI
TAF AMD
KRWI 030402Z 0304/0324 VRB06KT 3SM -TSRA FEW020 BKN025CB
     FM030430 VRB05KT 6SM BR SCT050 BKN250
      TEMPO 0305/0306 VRB10G15KT 3SM SHRA BKN035
     FM030600 VRB05KT P6SM BKN200=



000
FTUS42 KRAH 030357 AAB
TAFRDU
TAF AMD
KRDU 030357Z 0304/0324 VRB05KT P6SM VCTS BKN050CB
      TEMPO 0304/0306 VRB13G22KT 1SM +TSRA FEW015 BKN025CB
     FM030600 VRB05KT P6SM BKN200=



000
FTUS42 KRAH 030357 AAB
TAFRDU
TAF AMD
KRDU 030357Z 0304/0324 VRB05KT P6SM VCTS BKN050CB
      TEMPO 0304/0306 VRB13G22KT 1SM +TSRA FEW015 BKN025CB
     FM030600 VRB05KT P6SM BKN200=



000
FTUS42 KRAH 030337 AAC
TAFRWI
TAF AMD
KRWI 030337Z 0304/0324 VRB10G20KT 1SM +TSRA FEW020 BKN025CB
     FM030415 VRB05KT 6SM BR SCT050 BKN250
      TEMPO 0305/0306 VRB10G15KT 3SM SHRA BKN035
     FM030600 VRB05KT P6SM BKN200=



000
FTUS42 KRAH 030337 AAC
TAFRWI
TAF AMD
KRWI 030337Z 0304/0324 VRB10G20KT 1SM +TSRA FEW020 BKN025CB
     FM030415 VRB05KT 6SM BR SCT050 BKN250
      TEMPO 0305/0306 VRB10G15KT 3SM SHRA BKN035
     FM030600 VRB05KT P6SM BKN200=



000
FTUS42 KRAH 030337 AAC
TAFRWI
TAF AMD
KRWI 030337Z 0304/0324 VRB10G20KT 1SM +TSRA FEW020 BKN025CB
     FM030415 VRB05KT 6SM BR SCT050 BKN250
      TEMPO 0305/0306 VRB10G15KT 3SM SHRA BKN035
     FM030600 VRB05KT P6SM BKN200=



000
FTUS42 KRAH 030319 AAA
TAFRDU
TAF AMD
KRDU 030319Z 0303/0324 VRB05KT P6SM VCSH SCT060 BKN150
      TEMPO 0303/0305 VRB13G22KT 3SM TSRA BKN035CB
     FM030600 VRB05KT P6SM BKN200=



000
FTUS42 KRAH 030319 AAA
TAFRDU
TAF AMD
KRDU 030319Z 0303/0324 VRB05KT P6SM VCSH SCT060 BKN150
      TEMPO 0303/0305 VRB13G22KT 3SM TSRA BKN035CB
     FM030600 VRB05KT P6SM BKN200=



000
FTUS42 KRAH 030310 AAB
TAFFAY
TAF AMD
KFAY 030310Z 0303/0324 VRB05KT P6SM SCT060
      TEMPO 0304/0307 VRB12G22KT 5SM -SHRA BKN035=



000
FTUS42 KRAH 030303 AAA
TAFFAY
TAF AMD
KFAY 030303Z 0303/0324 VRB05KT P6SM SCT060
      TEMPO 0305/0307 VRB12G22KT 5SM -SHRA BKN035=



000
FTUS42 KRAH 030303 AAA
TAFFAY
TAF AMD
KFAY 030303Z 0303/0324 VRB05KT P6SM SCT060
      TEMPO 0305/0307 VRB12G22KT 5SM -SHRA BKN035=



000
FTUS42 KRAH 030303 AAA
TAFFAY
TAF AMD
KFAY 030303Z 0303/0324 VRB05KT P6SM SCT060
      TEMPO 0305/0307 VRB12G22KT 5SM -SHRA BKN035=



000
FTUS42 KRAH 030303 AAA
TAFFAY
TAF AMD
KFAY 030303Z 0303/0324 VRB05KT P6SM SCT060
      TEMPO 0305/0307 VRB12G22KT 5SM -SHRA BKN035=



000
FTUS42 KRAH 030258 AAB
TAFRWI
TAF AMD
KRWI 030258Z 0303/0324 VRB05KT P6SM VCTS SCT050CB
      TEMPO 0303/0304 VRB13G23KT 3SM TSRA BKN035CB
     FM030400 VRB05KT P6SM VCSH BKN035
      TEMPO 0304/0306 VRB10G15KT 3SM SHRA BKN035
     FM030600 VRB05KT P6SM BKN200=



000
FTUS42 KRAH 030258 AAB
TAFRWI
TAF AMD
KRWI 030258Z 0303/0324 VRB05KT P6SM VCTS SCT050CB
      TEMPO 0303/0304 VRB13G23KT 3SM TSRA BKN035CB
     FM030400 VRB05KT P6SM VCSH BKN035
      TEMPO 0304/0306 VRB10G15KT 3SM SHRA BKN035
     FM030600 VRB05KT P6SM BKN200=



000
FTUS42 KRAH 030139 AAA
TAFRWI
TAF AMD
KRWI 030139Z 0302/0324 VRB05KT P6SM VCTS SCT050CB
      TEMPO 0302/0303 36015G25KT 3SM TSRA BKN035CB
     FM030300 VRB05KT P6SM VCSH BKN035
      TEMPO 0303/0306 VRB10G15KT 3SM SHRA BKN035
     FM030600 VRB05KT P6SM BKN200=



000
FTUS42 KRAH 030139 AAA
TAFRWI
TAF AMD
KRWI 030139Z 0302/0324 VRB05KT P6SM VCTS SCT050CB
      TEMPO 0302/0303 36015G25KT 3SM TSRA BKN035CB
     FM030300 VRB05KT P6SM VCSH BKN035
      TEMPO 0303/0306 VRB10G15KT 3SM SHRA BKN035
     FM030600 VRB05KT P6SM BKN200=



000
FTUS42 KRAH 022332
TAFINT
TAF
KINT 022332Z 0300/0324 VRB05KT P6SM VCSH SCT050
      TEMPO 0300/0301 VRB10G15KT 3SM SHRA BKN035
     FM030200 VRB05KT P6SM SCT200=



000
FTUS42 KRAH 022332
TAFGSO
TAF
KGSO 022332Z 0300/0324 VRB05KT P6SM VCSH SCT050
      TEMPO 0300/0301 VRB10G15KT 3SM SHRA BKN035
     FM030200 VRB05KT P6SM SCT200=



000
FTUS42 KRAH 022332
TAFRWI
TAF
KRWI 022332Z 0300/0324 VRB05KT P6SM VCSH SCT060
      TEMPO 0302/0305 VRB10G15KT 3SM SHRA BKN035
     FM030600 VRB05KT P6SM BKN200=



000
FTUS42 KRAH 022332
TAFRDU
TAF
KRDU 022332Z 0300/0324 VRB05KT P6SM VCSH SCT060
      TEMPO 0302/0305 VRB10G15KT 3SM SHRA BKN035
     FM030600 VRB05KT P6SM BKN200=



000
FTUS42 KRAH 022332
TAFFAY
TAF
KFAY 022332Z 0300/0324 VRB05KT P6SM SCT060
      TEMPO 0303/0307 VRB15G25KT 3SM SHRA BKN035=



000
FTUS42 KRAH 022332
TAFINT
TAF
KINT 022332Z 0300/0324 VRB05KT P6SM VCSH SCT050
      TEMPO 0300/0301 VRB10G15KT 3SM SHRA BKN035
     FM030200 VRB05KT P6SM SCT200=



000
FTUS42 KRAH 022332
TAFGSO
TAF
KGSO 022332Z 0300/0324 VRB05KT P6SM VCSH SCT050
      TEMPO 0300/0301 VRB10G15KT 3SM SHRA BKN035
     FM030200 VRB05KT P6SM SCT200=



000
FTUS42 KRAH 022332
TAFRDU
TAF
KRDU 022332Z 0300/0324 VRB05KT P6SM VCSH SCT060
      TEMPO 0302/0305 VRB10G15KT 3SM SHRA BKN035
     FM030600 VRB05KT P6SM BKN200=



000
FTUS42 KRAH 022332
TAFGSO
TAF
KGSO 022332Z 0300/0324 VRB05KT P6SM VCSH SCT050
      TEMPO 0300/0301 VRB10G15KT 3SM SHRA BKN035
     FM030200 VRB05KT P6SM SCT200=



000
FTUS42 KRAH 022332
TAFRDU
TAF
KRDU 022332Z 0300/0324 VRB05KT P6SM VCSH SCT060
      TEMPO 0302/0305 VRB10G15KT 3SM SHRA BKN035
     FM030600 VRB05KT P6SM BKN200=



000
FTUS42 KRAH 022332
TAFINT
TAF
KINT 022332Z 0300/0324 VRB05KT P6SM VCSH SCT050
      TEMPO 0300/0301 VRB10G15KT 3SM SHRA BKN035
     FM030200 VRB05KT P6SM SCT200=



000
FTUS42 KRAH 022332
TAFRWI
TAF
KRWI 022332Z 0300/0324 VRB05KT P6SM VCSH SCT060
      TEMPO 0302/0305 VRB10G15KT 3SM SHRA BKN035
     FM030600 VRB05KT P6SM BKN200=



000
FTUS42 KRAH 022332
TAFFAY
TAF
KFAY 022332Z 0300/0324 VRB05KT P6SM SCT060
      TEMPO 0303/0307 VRB15G25KT 3SM SHRA BKN035=



000
FTUS42 KRAH 022332
TAFGSO
TAF
KGSO 022332Z 0300/0324 VRB05KT P6SM VCSH SCT050
      TEMPO 0300/0301 VRB10G15KT 3SM SHRA BKN035
     FM030200 VRB05KT P6SM SCT200=



000
FTUS42 KRAH 022332
TAFRWI
TAF
KRWI 022332Z 0300/0324 VRB05KT P6SM VCSH SCT060
      TEMPO 0302/0305 VRB10G15KT 3SM SHRA BKN035
     FM030600 VRB05KT P6SM BKN200=



000
FTUS42 KRAH 022332
TAFFAY
TAF
KFAY 022332Z 0300/0324 VRB05KT P6SM SCT060
      TEMPO 0303/0307 VRB15G25KT 3SM SHRA BKN035=



000
FTUS42 KRAH 022332
TAFINT
TAF
KINT 022332Z 0300/0324 VRB05KT P6SM VCSH SCT050
      TEMPO 0300/0301 VRB10G15KT 3SM SHRA BKN035
     FM030200 VRB05KT P6SM SCT200=



000
FTUS42 KRAH 022332
TAFRDU
TAF
KRDU 022332Z 0300/0324 VRB05KT P6SM VCSH SCT060
      TEMPO 0302/0305 VRB10G15KT 3SM SHRA BKN035
     FM030600 VRB05KT P6SM BKN200=



000
FTUS42 KRAH 022332
TAFFAY
TAF
KFAY 022332Z 0300/0324 VRB05KT P6SM SCT060
      TEMPO 0303/0307 VRB15G25KT 3SM SHRA BKN035=



000
FTUS42 KRAH 022332
TAFRWI
TAF
KRWI 022332Z 0300/0324 VRB05KT P6SM VCSH SCT060
      TEMPO 0302/0305 VRB10G15KT 3SM SHRA BKN035
     FM030600 VRB05KT P6SM BKN200=



000
FTUS42 KRAH 022306 AAB
TAFINT
TAF AMD
KINT 022306Z 0223/0318 VRB05KT P6SM VCTS SCT050CB
      TEMPO 0223/0224 VRB15G25KT 3SM -TSRA BKN035CB
     FM030000 VRB05KT P6SM VCSH SCT050
      TEMPO 0300/0302 3SM SHRA BKN035
     FM030200 VRB05KT P6SM SCT200=



000
FTUS42 KRAH 022306 AAB
TAFINT
TAF AMD
KINT 022306Z 0223/0318 VRB05KT P6SM VCTS SCT050CB
      TEMPO 0223/0224 VRB15G25KT 3SM -TSRA BKN035CB
     FM030000 VRB05KT P6SM VCSH SCT050
      TEMPO 0300/0302 3SM SHRA BKN035
     FM030200 VRB05KT P6SM SCT200=



000
FTUS42 KRAH 022306 AAB
TAFINT
TAF AMD
KINT 022306Z 0223/0318 VRB05KT P6SM VCTS SCT050CB
      TEMPO 0223/0224 VRB15G25KT 3SM -TSRA BKN035CB
     FM030000 VRB05KT P6SM VCSH SCT050
      TEMPO 0300/0302 3SM SHRA BKN035
     FM030200 VRB05KT P6SM SCT200=



000
FTUS42 KRAH 022144 AAA
TAFGSO
TAF AMD
KGSO 022144Z 0222/0318 VRB05KT P6SM VCSH SCT060
      TEMPO 0222/0224 VRB15G25KT 3SM SHRA BKN035
     FM030100 VRB05KT P6SM BKN200=



000
FTUS42 KRAH 022144 AAA
TAFGSO
TAF AMD
KGSO 022144Z 0222/0318 VRB05KT P6SM VCSH SCT060
      TEMPO 0222/0224 VRB15G25KT 3SM SHRA BKN035
     FM030100 VRB05KT P6SM BKN200=



000
FTUS42 KRAH 022144 AAA
TAFINT
TAF AMD
KINT 022144Z 0222/0318 VRB05KT P6SM VCSH SCT060
      TEMPO 0222/0224 VRB15G25KT 3SM SHRA BKN035
     FM030100 VRB05KT P6SM BKN200=



000
FTUS42 KRAH 022144 AAA
TAFINT
TAF AMD
KINT 022144Z 0222/0318 VRB05KT P6SM VCSH SCT060
      TEMPO 0222/0224 VRB15G25KT 3SM SHRA BKN035
     FM030100 VRB05KT P6SM BKN200=



000
FTUS42 KRAH 022144 AAA
TAFINT
TAF AMD
KINT 022144Z 0222/0318 VRB05KT P6SM VCSH SCT060
      TEMPO 0222/0224 VRB15G25KT 3SM SHRA BKN035
     FM030100 VRB05KT P6SM BKN200=



000
FTUS42 KRAH 022144 AAA
TAFGSO
TAF AMD
KGSO 022144Z 0222/0318 VRB05KT P6SM VCSH SCT060
      TEMPO 0222/0224 VRB15G25KT 3SM SHRA BKN035
     FM030100 VRB05KT P6SM BKN200=



000
FTUS42 KRAH 022144 AAA
TAFGSO
TAF AMD
KGSO 022144Z 0222/0318 VRB05KT P6SM VCSH SCT060
      TEMPO 0222/0224 VRB15G25KT 3SM SHRA BKN035
     FM030100 VRB05KT P6SM BKN200=



000
FTUS42 KRAH 022144 AAA
TAFINT
TAF AMD
KINT 022144Z 0222/0318 VRB05KT P6SM VCSH SCT060
      TEMPO 0222/0224 VRB15G25KT 3SM SHRA BKN035
     FM030100 VRB05KT P6SM BKN200=



000
FTUS42 KRAH 022143 AAA
TAFFAY
TAF AMD
KFAY 022143Z 0222/0318 21007KT P6SM SCT060
      TEMPO 0300/0304 VRB15G25KT 5SM SHRA BKN035=



000
FTUS42 KRAH 022143 AAA
TAFFAY
TAF AMD
KFAY 022143Z 0222/0318 21007KT P6SM SCT060
      TEMPO 0300/0304 VRB15G25KT 5SM SHRA BKN035=



000
FTUS42 KRAH 022143 AAA
TAFFAY
TAF AMD
KFAY 022143Z 0222/0318 21007KT P6SM SCT060
      TEMPO 0300/0304 VRB15G25KT 5SM SHRA BKN035=



000
FTUS42 KRAH 022143 AAA
TAFFAY
TAF AMD
KFAY 022143Z 0222/0318 21007KT P6SM SCT060
      TEMPO 0300/0304 VRB15G25KT 5SM SHRA BKN035=



000
FTUS42 KRAH 022141 AAB
TAFRWI
TAF AMD
KRWI 022141Z 0222/0318 VRB05KT P6SM VCSH SCT050
      TEMPO 0222/0302 VRB15G25KT 3SM SHRA BKN035
     FM030200 VRB05KT P6SM BKN200=



000
FTUS42 KRAH 022141 AAB
TAFRWI
TAF AMD
KRWI 022141Z 0222/0318 VRB05KT P6SM VCSH SCT050
      TEMPO 0222/0302 VRB15G25KT 3SM SHRA BKN035
     FM030200 VRB05KT P6SM BKN200=



000
FTUS42 KRAH 022140 AAA
TAFRDU
TAF AMD
KRDU 022140Z 0222/0318 24008KT P6SM VCSH SCT060
     FM030200 VRB05KT P6SM BKN200=



000
FTUS42 KRAH 022140 AAA
TAFRDU
TAF AMD
KRDU 022140Z 0222/0318 24008KT P6SM VCSH SCT060
     FM030200 VRB05KT P6SM BKN200=



000
FTUS42 KRAH 022140 AAA
TAFRDU
TAF AMD
KRDU 022140Z 0222/0318 24008KT P6SM VCSH SCT060
     FM030200 VRB05KT P6SM BKN200=



000
FTUS42 KRAH 022140 AAA
TAFRDU
TAF AMD
KRDU 022140Z 0222/0318 24008KT P6SM VCSH SCT060
     FM030200 VRB05KT P6SM BKN200=



000
FTUS42 KRAH 021921 AAA
TAFRWI
TAF AMD
KRWI 021921Z 0219/0318 20005KT P6SM VCTS SCT050CB
      TEMPO 0219/0221 VRB15G30KT 3SM TSRA BR BKN035CB BKN050
     FM022300 VRB04KT P6SM BKN060
     FM030500 VRB05KT P6SM SCT070 BKN200=



000
FTUS42 KRAH 021921 AAA
TAFRWI
TAF AMD
KRWI 021921Z 0219/0318 20005KT P6SM VCTS SCT050CB
      TEMPO 0219/0221 VRB15G30KT 3SM TSRA BR BKN035CB BKN050
     FM022300 VRB04KT P6SM BKN060
     FM030500 VRB05KT P6SM SCT070 BKN200=



000
FTUS42 KRAH 021728
TAFRWI
TAF
KRWI 021728Z 0218/0318 20003KT P6SM SKC
     FM022300 VRB04KT P6SM BKN060
     FM030500 VRB05KT P6SM SCT070 BKN200=



000
FTUS42 KRAH 021728
TAFINT
TAF
KINT 021728Z 0218/0318 VRB03KT P6SM FEW060
     FM022100 VRB04KT P6SM VCSH BKN070
     FM030200 34005KT P6SM SCT070 BKN200=



000
FTUS42 KRAH 021728
TAFFAY
TAF
KFAY 021728Z 0218/0318 VRB04KT P6SM FEW050
     FM022200 VRB04KT P6SM VCSH BKN070
      TEMPO 0223/0301 5SM -TSRA BR BKN040CB
     FM030300 34005KT P6SM SCT070 BKN200=



000
FTUS42 KRAH 021728
TAFGSO
TAF
KGSO 021728Z 0218/0318 33006KT P6SM FEW060 BKN250
     FM022100 VRB04KT P6SM VCSH BKN070
     FM030200 34005KT P6SM SCT070 BKN200=



000
FTUS42 KRAH 021728
TAFRDU
TAF
KRDU 021728Z 0218/0318 24004KT P6SM FEW045 SCT250
     FM022200 VRB04KT P6SM VCSH BKN070
     FM030300 34005KT P6SM SCT070 BKN200=



000
FTUS42 KRAH 021728
TAFINT
TAF
KINT 021728Z 0218/0318 VRB03KT P6SM FEW060
     FM022100 VRB04KT P6SM VCSH BKN070
     FM030200 34005KT P6SM SCT070 BKN200=



000
FTUS42 KRAH 021728
TAFRDU
TAF
KRDU 021728Z 0218/0318 24004KT P6SM FEW045 SCT250
     FM022200 VRB04KT P6SM VCSH BKN070
     FM030300 34005KT P6SM SCT070 BKN200=



000
FTUS42 KRAH 021728
TAFGSO
TAF
KGSO 021728Z 0218/0318 33006KT P6SM FEW060 BKN250
     FM022100 VRB04KT P6SM VCSH BKN070
     FM030200 34005KT P6SM SCT070 BKN200=



000
FTUS42 KRAH 021728
TAFFAY
TAF
KFAY 021728Z 0218/0318 VRB04KT P6SM FEW050
     FM022200 VRB04KT P6SM VCSH BKN070
      TEMPO 0223/0301 5SM -TSRA BR BKN040CB
     FM030300 34005KT P6SM SCT070 BKN200=



000
FTUS42 KRAH 021728
TAFRWI
TAF
KRWI 021728Z 0218/0318 20003KT P6SM SKC
     FM022300 VRB04KT P6SM BKN060
     FM030500 VRB05KT P6SM SCT070 BKN200=



000
FTUS42 KRAH 021728
TAFFAY
TAF
KFAY 021728Z 0218/0318 VRB04KT P6SM FEW050
     FM022200 VRB04KT P6SM VCSH BKN070
      TEMPO 0223/0301 5SM -TSRA BR BKN040CB
     FM030300 34005KT P6SM SCT070 BKN200=



000
FTUS42 KRAH 021728
TAFRWI
TAF
KRWI 021728Z 0218/0318 20003KT P6SM SKC
     FM022300 VRB04KT P6SM BKN060
     FM030500 VRB05KT P6SM SCT070 BKN200=



000
FTUS42 KRAH 021728
TAFFAY
TAF
KFAY 021728Z 0218/0318 VRB04KT P6SM FEW050
     FM022200 VRB04KT P6SM VCSH BKN070
      TEMPO 0223/0301 5SM -TSRA BR BKN040CB
     FM030300 34005KT P6SM SCT070 BKN200=



000
FTUS42 KRAH 021728
TAFRWI
TAF
KRWI 021728Z 0218/0318 20003KT P6SM SKC
     FM022300 VRB04KT P6SM BKN060
     FM030500 VRB05KT P6SM SCT070 BKN200=



000
FTUS42 KRAH 021728
TAFINT
TAF
KINT 021728Z 0218/0318 VRB03KT P6SM FEW060
     FM022100 VRB04KT P6SM VCSH BKN070
     FM030200 34005KT P6SM SCT070 BKN200=



000
FTUS42 KRAH 021728
TAFRDU
TAF
KRDU 021728Z 0218/0318 24004KT P6SM FEW045 SCT250
     FM022200 VRB04KT P6SM VCSH BKN070
     FM030300 34005KT P6SM SCT070 BKN200=



000
FTUS42 KRAH 021728
TAFRDU
TAF
KRDU 021728Z 0218/0318 24004KT P6SM FEW045 SCT250
     FM022200 VRB04KT P6SM VCSH BKN070
     FM030300 34005KT P6SM SCT070 BKN200=



000
FTUS42 KRAH 021728
TAFGSO
TAF
KGSO 021728Z 0218/0318 33006KT P6SM FEW060 BKN250
     FM022100 VRB04KT P6SM VCSH BKN070
     FM030200 34005KT P6SM SCT070 BKN200=



000
FTUS42 KRAH 021728
TAFGSO
TAF
KGSO 021728Z 0218/0318 33006KT P6SM FEW060 BKN250
     FM022100 VRB04KT P6SM VCSH BKN070
     FM030200 34005KT P6SM SCT070 BKN200=



000
FTUS42 KRAH 021728
TAFINT
TAF
KINT 021728Z 0218/0318 VRB03KT P6SM FEW060
     FM022100 VRB04KT P6SM VCSH BKN070
     FM030200 34005KT P6SM SCT070 BKN200=



000
FTUS42 KRAH 021123
TAFFAY
TAF
KFAY 021123Z 0212/0312 24004KT P6SM SCT250
     FM021400 26006KT P6SM SCT060
      TEMPO 0218/0222 BKN060=



000
FTUS42 KRAH 021123
TAFRWI
TAF
KRWI 021123Z 0212/0312 00000KT 4SM BR FEW250
      TEMPO 0212/0213 2SM BR SCT002
     FM021300 VRB03KT P6SM FEW080 SCT250
     FM021700 23004KT P6SM SCT060
     FM022300 VRB04KT P6SM VCSH BKN060
     FM030300 24004KT P6SM SCT070=



000
FTUS42 KRAH 021123
TAFGSO
TAF
KGSO 021123Z 0212/0312 00000KT P6SM SCT080 SCT250
     FM021700 25004KT P6SM BKN070
     FM022100 VRB04KT P6SM VCSH OVC070
     FM030200 36005KT P6SM SCT070=



000
FTUS42 KRAH 021123
TAFGSO
TAF
KGSO 021123Z 0212/0312 00000KT P6SM SCT080 SCT250
     FM021700 25004KT P6SM BKN070
     FM022100 VRB04KT P6SM VCSH OVC070
     FM030200 36005KT P6SM SCT070=



000
FTUS42 KRAH 021123
TAFRWI
TAF
KRWI 021123Z 0212/0312 00000KT 4SM BR FEW250
      TEMPO 0212/0213 2SM BR SCT002
     FM021300 VRB03KT P6SM FEW080 SCT250
     FM021700 23004KT P6SM SCT060
     FM022300 VRB04KT P6SM VCSH BKN060
     FM030300 24004KT P6SM SCT070=



000
FTUS42 KRAH 021123
TAFGSO
TAF
KGSO 021123Z 0212/0312 00000KT P6SM SCT080 SCT250
     FM021700 25004KT P6SM BKN070
     FM022100 VRB04KT P6SM VCSH OVC070
     FM030200 36005KT P6SM SCT070=



000
FTUS42 KRAH 021123
TAFFAY
TAF
KFAY 021123Z 0212/0312 24004KT P6SM SCT250
     FM021400 26006KT P6SM SCT060
      TEMPO 0218/0222 BKN060=



000
FTUS42 KRAH 021123
TAFRWI
TAF
KRWI 021123Z 0212/0312 00000KT 4SM BR FEW250
      TEMPO 0212/0213 2SM BR SCT002
     FM021300 VRB03KT P6SM FEW080 SCT250
     FM021700 23004KT P6SM SCT060
     FM022300 VRB04KT P6SM VCSH BKN060
     FM030300 24004KT P6SM SCT070=



000
FTUS42 KRAH 021123
TAFRDU
TAF
KRDU 021123Z 0212/0312 00000KT P6SM SCT100 SCT250
     FM021900 25004KT P6SM BKN070
     FM022300 27003KT P6SM VCSH BKN070
     FM030300 35005KT P6SM SCT070=



000
FTUS42 KRAH 021123
TAFINT
TAF
KINT 021123Z 0212/0312 00000KT P6SM SCT080
     FM021700 25004KT P6SM BKN070
     FM022100 VRB04KT P6SM VCSH OVC070
     FM030200 36005KT P6SM SCT070=



000
FTUS42 KRAH 021123
TAFINT
TAF
KINT 021123Z 0212/0312 00000KT P6SM SCT080
     FM021700 25004KT P6SM BKN070
     FM022100 VRB04KT P6SM VCSH OVC070
     FM030200 36005KT P6SM SCT070=



000
FTUS42 KRAH 021123
TAFRDU
TAF
KRDU 021123Z 0212/0312 00000KT P6SM SCT100 SCT250
     FM021900 25004KT P6SM BKN070
     FM022300 27003KT P6SM VCSH BKN070
     FM030300 35005KT P6SM SCT070=



000
FTUS42 KRAH 021123
TAFFAY
TAF
KFAY 021123Z 0212/0312 24004KT P6SM SCT250
     FM021400 26006KT P6SM SCT060
      TEMPO 0218/0222 BKN060=



000
FTUS42 KRAH 021123
TAFINT
TAF
KINT 021123Z 0212/0312 00000KT P6SM SCT080
     FM021700 25004KT P6SM BKN070
     FM022100 VRB04KT P6SM VCSH OVC070
     FM030200 36005KT P6SM SCT070=



000
FTUS42 KRAH 021123
TAFRDU
TAF
KRDU 021123Z 0212/0312 00000KT P6SM SCT100 SCT250
     FM021900 25004KT P6SM BKN070
     FM022300 27003KT P6SM VCSH BKN070
     FM030300 35005KT P6SM SCT070=



000
FTUS42 KRAH 021123
TAFRWI
TAF
KRWI 021123Z 0212/0312 00000KT 4SM BR FEW250
      TEMPO 0212/0213 2SM BR SCT002
     FM021300 VRB03KT P6SM FEW080 SCT250
     FM021700 23004KT P6SM SCT060
     FM022300 VRB04KT P6SM VCSH BKN060
     FM030300 24004KT P6SM SCT070=



000
FTUS42 KRAH 021123
TAFGSO
TAF
KGSO 021123Z 0212/0312 00000KT P6SM SCT080 SCT250
     FM021700 25004KT P6SM BKN070
     FM022100 VRB04KT P6SM VCSH OVC070
     FM030200 36005KT P6SM SCT070=



000
FTUS42 KRAH 021123
TAFINT
TAF
KINT 021123Z 0212/0312 00000KT P6SM SCT080
     FM021700 25004KT P6SM BKN070
     FM022100 VRB04KT P6SM VCSH OVC070
     FM030200 36005KT P6SM SCT070=



000
FTUS42 KRAH 021123
TAFFAY
TAF
KFAY 021123Z 0212/0312 24004KT P6SM SCT250
     FM021400 26006KT P6SM SCT060
      TEMPO 0218/0222 BKN060=



000
FTUS42 KRAH 021123
TAFRDU
TAF
KRDU 021123Z 0212/0312 00000KT P6SM SCT100 SCT250
     FM021900 25004KT P6SM BKN070
     FM022300 27003KT P6SM VCSH BKN070
     FM030300 35005KT P6SM SCT070=



000
FTUS42 KRAH 020907 AAA
TAFRDU
TAF AMD
KRDU 020907Z 0209/0306 00000KT P6SM FEW100 SCT250
      TEMPO 0210/0212 6SM BR
     FM021700 25004KT P6SM BKN070
     FM022300 27003KT P6SM VCSH BKN070
     FM030300 35005KT P6SM SCT070=



000
FTUS42 KRAH 020907 AAA
TAFRDU
TAF AMD
KRDU 020907Z 0209/0306 00000KT P6SM FEW100 SCT250
      TEMPO 0210/0212 6SM BR
     FM021700 25004KT P6SM BKN070
     FM022300 27003KT P6SM VCSH BKN070
     FM030300 35005KT P6SM SCT070=



000
FTUS42 KRAH 020907 AAA
TAFRDU
TAF AMD
KRDU 020907Z 0209/0306 00000KT P6SM FEW100 SCT250
      TEMPO 0210/0212 6SM BR
     FM021700 25004KT P6SM BKN070
     FM022300 27003KT P6SM VCSH BKN070
     FM030300 35005KT P6SM SCT070=



000
FTUS42 KRAH 020907 AAA
TAFRDU
TAF AMD
KRDU 020907Z 0209/0306 00000KT P6SM FEW100 SCT250
      TEMPO 0210/0212 6SM BR
     FM021700 25004KT P6SM BKN070
     FM022300 27003KT P6SM VCSH BKN070
     FM030300 35005KT P6SM SCT070=



000
FTUS42 KRAH 020906 AAA
TAFGSO
TAF AMD
KGSO 020906Z 0209/0306 00000KT P6SM FEW060 SCT250
     FM021700 25004KT P6SM BKN070
     FM022100 VRB04KT P6SM VCSH OVC070
     FM030200 36005KT P6SM SCT070=



000
FTUS42 KRAH 020906 AAA
TAFGSO
TAF AMD
KGSO 020906Z 0209/0306 00000KT P6SM FEW060 SCT250
     FM021700 25004KT P6SM BKN070
     FM022100 VRB04KT P6SM VCSH OVC070
     FM030200 36005KT P6SM SCT070=



000
FTUS42 KRAH 020614 AAA
TAFRWI
TAF AMD
KRWI 020614Z 0206/0306 00000KT 4SM BR FEW250
      TEMPO 0208/0212 2SM BR SCT002
     FM021700 23004KT P6SM SCT060
     FM022300 VRB04KT P6SM VCSH BKN060
     FM030300 24004KT P6SM SCT070=



000
FTUS42 KRAH 020614 AAA
TAFRWI
TAF AMD
KRWI 020614Z 0206/0306 00000KT 4SM BR FEW250
      TEMPO 0208/0212 2SM BR SCT002
     FM021700 23004KT P6SM SCT060
     FM022300 VRB04KT P6SM VCSH BKN060
     FM030300 24004KT P6SM SCT070=



000
FTUS42 KRAH 020614 AAA
TAFRWI
TAF AMD
KRWI 020614Z 0206/0306 00000KT 4SM BR FEW250
      TEMPO 0208/0212 2SM BR SCT002
     FM021700 23004KT P6SM SCT060
     FM022300 VRB04KT P6SM VCSH BKN060
     FM030300 24004KT P6SM SCT070=



000
FTUS42 KRAH 020614 AAA
TAFRWI
TAF AMD
KRWI 020614Z 0206/0306 00000KT 4SM BR FEW250
      TEMPO 0208/0212 2SM BR SCT002
     FM021700 23004KT P6SM SCT060
     FM022300 VRB04KT P6SM VCSH BKN060
     FM030300 24004KT P6SM SCT070=



000
FTUS42 KRAH 020528
TAFGSO
TAF
KGSO 020528Z 0206/0306 00000KT P6SM SCT060
     FM021700 25004KT P6SM BKN070
     FM022100 VRB04KT P6SM VCSH OVC070
     FM030200 36005KT P6SM SCT070=



000
FTUS42 KRAH 020528
TAFRDU
TAF
KRDU 020528Z 0206/0306 00000KT P6SM SCT070
     FM021700 25004KT P6SM BKN070
     FM022300 27003KT P6SM VCSH BKN070
     FM030300 35005KT P6SM SCT070=



000
FTUS42 KRAH 020528
TAFFAY
TAF
KFAY 020528Z 0206/0306 24004KT P6SM FEW250
      TEMPO 0209/0212 5SM BR
     FM021400 26006KT P6SM SCT060
      TEMPO 0218/0222 BKN060=



000
FTUS42 KRAH 020528
TAFRWI
TAF
KRWI 020528Z 0206/0306 00000KT P6SM FEW250
      TEMPO 0208/0212 2SM BR SCT002
     FM021700 23004KT P6SM SCT060
     FM022300 VRB04KT P6SM VCSH BKN060
     FM030300 24004KT P6SM SCT070=



000
FTUS42 KRAH 020528
TAFINT
TAF
KINT 020528Z 0206/0306 00000KT P6SM SCT060
     FM021700 25004KT P6SM BKN070
     FM022100 VRB04KT P6SM VCSH OVC070
     FM030200 36005KT P6SM SCT070=



000
FTUS42 KRAH 020528
TAFRWI
TAF
KRWI 020528Z 0206/0306 00000KT P6SM FEW250
      TEMPO 0208/0212 2SM BR SCT002
     FM021700 23004KT P6SM SCT060
     FM022300 VRB04KT P6SM VCSH BKN060
     FM030300 24004KT P6SM SCT070=



000
FTUS42 KRAH 020528
TAFGSO
TAF
KGSO 020528Z 0206/0306 00000KT P6SM SCT060
     FM021700 25004KT P6SM BKN070
     FM022100 VRB04KT P6SM VCSH OVC070
     FM030200 36005KT P6SM SCT070=



000
FTUS42 KRAH 020528
TAFFAY
TAF
KFAY 020528Z 0206/0306 24004KT P6SM FEW250
      TEMPO 0209/0212 5SM BR
     FM021400 26006KT P6SM SCT060
      TEMPO 0218/0222 BKN060=



000
FTUS42 KRAH 020528
TAFRDU
TAF
KRDU 020528Z 0206/0306 00000KT P6SM SCT070
     FM021700 25004KT P6SM BKN070
     FM022300 27003KT P6SM VCSH BKN070
     FM030300 35005KT P6SM SCT070=



000
FTUS42 KRAH 020528
TAFGSO
TAF
KGSO 020528Z 0206/0306 00000KT P6SM SCT060
     FM021700 25004KT P6SM BKN070
     FM022100 VRB04KT P6SM VCSH OVC070
     FM030200 36005KT P6SM SCT070=



000
FTUS42 KRAH 020528
TAFRWI
TAF
KRWI 020528Z 0206/0306 00000KT P6SM FEW250
      TEMPO 0208/0212 2SM BR SCT002
     FM021700 23004KT P6SM SCT060
     FM022300 VRB04KT P6SM VCSH BKN060
     FM030300 24004KT P6SM SCT070=



000
FTUS42 KRAH 020528
TAFINT
TAF
KINT 020528Z 0206/0306 00000KT P6SM SCT060
     FM021700 25004KT P6SM BKN070
     FM022100 VRB04KT P6SM VCSH OVC070
     FM030200 36005KT P6SM SCT070=



000
FTUS42 KRAH 020528
TAFFAY
TAF
KFAY 020528Z 0206/0306 24004KT P6SM FEW250
      TEMPO 0209/0212 5SM BR
     FM021400 26006KT P6SM SCT060
      TEMPO 0218/0222 BKN060=



000
FTUS42 KRAH 020528
TAFINT
TAF
KINT 020528Z 0206/0306 00000KT P6SM SCT060
     FM021700 25004KT P6SM BKN070
     FM022100 VRB04KT P6SM VCSH OVC070
     FM030200 36005KT P6SM SCT070=



000
FTUS42 KRAH 020528
TAFRWI
TAF
KRWI 020528Z 0206/0306 00000KT P6SM FEW250
      TEMPO 0208/0212 2SM BR SCT002
     FM021700 23004KT P6SM SCT060
     FM022300 VRB04KT P6SM VCSH BKN060
     FM030300 24004KT P6SM SCT070=



000
FTUS42 KRAH 020528
TAFFAY
TAF
KFAY 020528Z 0206/0306 24004KT P6SM FEW250
      TEMPO 0209/0212 5SM BR
     FM021400 26006KT P6SM SCT060
      TEMPO 0218/0222 BKN060=



000
FTUS42 KRAH 020528
TAFRDU
TAF
KRDU 020528Z 0206/0306 00000KT P6SM SCT070
     FM021700 25004KT P6SM BKN070
     FM022300 27003KT P6SM VCSH BKN070
     FM030300 35005KT P6SM SCT070=



000
FTUS42 KRAH 020528
TAFRDU
TAF
KRDU 020528Z 0206/0306 00000KT P6SM SCT070
     FM021700 25004KT P6SM BKN070
     FM022300 27003KT P6SM VCSH BKN070
     FM030300 35005KT P6SM SCT070=



000
FTUS42 KRAH 020528
TAFGSO
TAF
KGSO 020528Z 0206/0306 00000KT P6SM SCT060
     FM021700 25004KT P6SM BKN070
     FM022100 VRB04KT P6SM VCSH OVC070
     FM030200 36005KT P6SM SCT070=



000
FTUS42 KRAH 020528
TAFINT
TAF
KINT 020528Z 0206/0306 00000KT P6SM SCT060
     FM021700 25004KT P6SM BKN070
     FM022100 VRB04KT P6SM VCSH OVC070
     FM030200 36005KT P6SM SCT070=



000
FTUS42 KRAH 020505 AAA
TAFRWI
TAF AMD
KRWI 020505Z 0205/0224 00000KT P6SM SCT050
     FM020700 00000KT 3SM BR SCT005
      TEMPO 0207/0211 1SM BR BKN005
     FM021400 25005KT P6SM SCT050=



000
FTUS42 KRAH 020505 AAA
TAFRWI
TAF AMD
KRWI 020505Z 0205/0224 00000KT P6SM SCT050
     FM020700 00000KT 3SM BR SCT005
      TEMPO 0207/0211 1SM BR BKN005
     FM021400 25005KT P6SM SCT050=



000
FTUS42 KRAH 020505 AAA
TAFRWI
TAF AMD
KRWI 020505Z 0205/0224 00000KT P6SM SCT050
     FM020700 00000KT 3SM BR SCT005
      TEMPO 0207/0211 1SM BR BKN005
     FM021400 25005KT P6SM SCT050=



000
FTUS42 KRAH 020505 AAA
TAFRWI
TAF AMD
KRWI 020505Z 0205/0224 00000KT P6SM SCT050
     FM020700 00000KT 3SM BR SCT005
      TEMPO 0207/0211 1SM BR BKN005
     FM021400 25005KT P6SM SCT050=



000
FTUS42 KRAH 020241 AAA
TAFRDU
TAF AMD
KRDU 020241Z 0203/0224 VRB05KT P6SM SCT050
      TEMPO 0208/0212 5SM BR=



000
FTUS42 KRAH 020241 AAA
TAFRDU
TAF AMD
KRDU 020241Z 0203/0224 VRB05KT P6SM SCT050
      TEMPO 0208/0212 5SM BR=



000
FTUS42 KRAH 020240 AAA
TAFGSO
TAF AMD
KGSO 020240Z 0203/0224 VRB05KT P6SM SCT050=



000
FTUS42 KRAH 020240 AAA
TAFGSO
TAF AMD
KGSO 020240Z 0203/0224 VRB05KT P6SM SCT050=



000
FTUS42 KRAH 020240 AAA
TAFGSO
TAF AMD
KGSO 020240Z 0203/0224 VRB05KT P6SM SCT050=



000
FTUS42 KRAH 012320
TAFRDU
TAF
KRDU 012320Z 0200/0224 VRB05KT P6SM SCT050
      TEMPO 0208/0212 5SM BR=



000
FTUS42 KRAH 012320
TAFRDU
TAF
KRDU 012320Z 0200/0224 VRB05KT P6SM SCT050
      TEMPO 0208/0212 5SM BR=



000
FTUS42 KRAH 012320
TAFGSO
TAF
KGSO 012320Z 0200/0224 VRB05KT P6SM SCT050=



000
FTUS42 KRAH 012320
TAFRWI
TAF
KRWI 012320Z 0200/0224 VRB05KT P6SM SCT050
     FM020500 00000KT 3SM BR SCT005
      TEMPO 0207/0211 1SM BR BKN005
     FM021400 25005KT P6SM SCT050=



000
FTUS42 KRAH 012320
TAFFAY
TAF
KFAY 012320Z 0200/0224 VRB05KT P6SM SCT050
      TEMPO 0208/0212 5SM BR=



000
FTUS42 KRAH 012320
TAFINT
TAF
KINT 012320Z 0200/0224 VRB05KT P6SM SCT050=



000
FTUS42 KRAH 012320
TAFRWI
TAF
KRWI 012320Z 0200/0224 VRB05KT P6SM SCT050
     FM020500 00000KT 3SM BR SCT005
      TEMPO 0207/0211 1SM BR BKN005
     FM021400 25005KT P6SM SCT050=



000
FTUS42 KRAH 012320
TAFFAY
TAF
KFAY 012320Z 0200/0224 VRB05KT P6SM SCT050
      TEMPO 0208/0212 5SM BR=



000
FTUS42 KRAH 012320
TAFGSO
TAF
KGSO 012320Z 0200/0224 VRB05KT P6SM SCT050=



000
FTUS42 KRAH 011720
TAFINT
TAF
KINT 011720Z 0118/0218 VRB05KT P6SM SCT050 SCT150=



000
FTUS42 KRAH 011720
TAFGSO
TAF
KGSO 011720Z 0118/0218 VRB05KT P6SM SCT050 SCT150=



000
FTUS42 KRAH 011720
TAFRDU
TAF
KRDU 011720Z 0118/0218 VRB05KT P6SM SCT050 SCT150
      TEMPO 0208/0212 5SM BR=



000
FTUS42 KRAH 011720
TAFRWI
TAF
KRWI 011720Z 0118/0218 VRB05KT P6SM FEW025 BKN040
     FM012300 VRB03KT P6SM SCT050 SCT150
     FM020500 00000KT 4SM BR FEW005 SCT150
      TEMPO 0207/0211 1SM BR BKN005
     FM021400 25005KT P6SM SCT012 SCT050=



000
FTUS42 KRAH 011720
TAFGSO
TAF
KGSO 011720Z 0118/0218 VRB05KT P6SM SCT050 SCT150=



000
FTUS42 KRAH 011720
TAFFAY
TAF
KFAY 011720Z 0118/0218 VRB05KT P6SM SCT050 SCT150
      TEMPO 0208/0212 5SM BR=



000
FTUS42 KRAH 011720
TAFGSO
TAF
KGSO 011720Z 0118/0218 VRB05KT P6SM SCT050 SCT150=



000
FTUS42 KRAH 011720
TAFRDU
TAF
KRDU 011720Z 0118/0218 VRB05KT P6SM SCT050 SCT150
      TEMPO 0208/0212 5SM BR=



000
FTUS42 KRAH 011720
TAFRDU
TAF
KRDU 011720Z 0118/0218 VRB05KT P6SM SCT050 SCT150
      TEMPO 0208/0212 5SM BR=



000
FTUS42 KRAH 011720
TAFINT
TAF
KINT 011720Z 0118/0218 VRB05KT P6SM SCT050 SCT150=



000
FTUS42 KRAH 011720
TAFRDU
TAF
KRDU 011720Z 0118/0218 VRB05KT P6SM SCT050 SCT150
      TEMPO 0208/0212 5SM BR=



000
FTUS42 KRAH 011720
TAFINT
TAF
KINT 011720Z 0118/0218 VRB05KT P6SM SCT050 SCT150=



000
FTUS42 KRAH 011720
TAFRWI
TAF
KRWI 011720Z 0118/0218 VRB05KT P6SM FEW025 BKN040
     FM012300 VRB03KT P6SM SCT050 SCT150
     FM020500 00000KT 4SM BR FEW005 SCT150
      TEMPO 0207/0211 1SM BR BKN005
     FM021400 25005KT P6SM SCT012 SCT050=



000
FTUS42 KRAH 011720
TAFFAY
TAF
KFAY 011720Z 0118/0218 VRB05KT P6SM SCT050 SCT150
      TEMPO 0208/0212 5SM BR=



000
FTUS42 KRAH 011720
TAFGSO
TAF
KGSO 011720Z 0118/0218 VRB05KT P6SM SCT050 SCT150=



000
FTUS42 KRAH 011720
TAFINT
TAF
KINT 011720Z 0118/0218 VRB05KT P6SM SCT050 SCT150=



000
FTUS42 KRAH 011703 AAB
TAFRWI
TAF AMD
KRWI 011703Z 0117/0212 VRB04KT P6SM SKC
     FM011900 VRB03KT P6SM BKN035
     FM012300 VRB03KT P6SM SCT035=



000
FTUS42 KRAH 011703 AAB
TAFRWI
TAF AMD
KRWI 011703Z 0117/0212 VRB04KT P6SM SKC
     FM011900 VRB03KT P6SM BKN035
     FM012300 VRB03KT P6SM SCT035=



000
FTUS42 KRAH 011702 AAB
TAFRDU
TAF AMD
KRDU 011702Z 0117/0212 00000KT P6SM SCT045 SCT250
     FM012000 VRB03KT P6SM SCT035=



000
FTUS42 KRAH 011702 AAB
TAFRDU
TAF AMD
KRDU 011702Z 0117/0212 00000KT P6SM SCT045 SCT250
     FM012000 VRB03KT P6SM SCT035=



000
FTUS42 KRAH 011411 AAA
TAFRWI
TAF AMD
KRWI 011411Z 0114/0212 30004KT P6SM OVC010
     FM011600 02005KT P6SM BKN020
     FM011900 VRB03KT P6SM VCSH BKN035
     FM012300 VRB03KT P6SM SCT035=



000
FTUS42 KRAH 011411 AAA
TAFRWI
TAF AMD
KRWI 011411Z 0114/0212 30004KT P6SM OVC010
     FM011600 02005KT P6SM BKN020
     FM011900 VRB03KT P6SM VCSH BKN035
     FM012300 VRB03KT P6SM SCT035=



000
FTUS42 KRAH 011411 AAA
TAFFAY
TAF AMD
KFAY 011411Z 0114/0212 00000KT P6SM SKC
     FM011700 01005KT P6SM BKN035
     FM012000 VRB04KT P6SM SCT035=



000
FTUS42 KRAH 011411 AAA
TAFFAY
TAF AMD
KFAY 011411Z 0114/0212 00000KT P6SM SKC
     FM011700 01005KT P6SM BKN035
     FM012000 VRB04KT P6SM SCT035=



000
FTUS42 KRAH 011411 AAA
TAFRWI
TAF AMD
KRWI 011411Z 0114/0212 30004KT P6SM OVC010
     FM011600 02005KT P6SM BKN020
     FM011900 VRB03KT P6SM VCSH BKN035
     FM012300 VRB03KT P6SM SCT035=



000
FTUS42 KRAH 011411 AAA
TAFRWI
TAF AMD
KRWI 011411Z 0114/0212 30004KT P6SM OVC010
     FM011600 02005KT P6SM BKN020
     FM011900 VRB03KT P6SM VCSH BKN035
     FM012300 VRB03KT P6SM SCT035=



000
FTUS42 KRAH 011411 AAA
TAFFAY
TAF AMD
KFAY 011411Z 0114/0212 00000KT P6SM SKC
     FM011700 01005KT P6SM BKN035
     FM012000 VRB04KT P6SM SCT035=



000
FTUS42 KRAH 011411 AAA
TAFFAY
TAF AMD
KFAY 011411Z 0114/0212 00000KT P6SM SKC
     FM011700 01005KT P6SM BKN035
     FM012000 VRB04KT P6SM SCT035=



000
FTUS42 KRAH 011254 AAA
TAFRDU
TAF AMD
KRDU 011254Z 0113/0212 VRB03KT P6SM FEW002 SCT250
     FM011500 02005KT P6SM BKN020
     FM012000 VRB03KT P6SM SCT035=



000
FTUS42 KRAH 011254 AAA
TAFRDU
TAF AMD
KRDU 011254Z 0113/0212 VRB03KT P6SM FEW002 SCT250
     FM011500 02005KT P6SM BKN020
     FM012000 VRB03KT P6SM SCT035=



000
FTUS42 KRAH 011254 AAA
TAFRDU
TAF AMD
KRDU 011254Z 0113/0212 VRB03KT P6SM FEW002 SCT250
     FM011500 02005KT P6SM BKN020
     FM012000 VRB03KT P6SM SCT035=



000
FTUS42 KRAH 011254 AAA
TAFRDU
TAF AMD
KRDU 011254Z 0113/0212 VRB03KT P6SM FEW002 SCT250
     FM011500 02005KT P6SM BKN020
     FM012000 VRB03KT P6SM SCT035=



000
FTUS42 KRAH 011136
TAFGSO
TAF
KGSO 011136Z 0112/0212 00000KT P6SM SKC
      TEMPO 0112/0113 4SM BR SCT003
     FM011330 28004KT P6SM SCT020
     FM011800 VRB04KT P6SM FEW035=



000
FTUS42 KRAH 011136
TAFRDU
TAF
KRDU 011136Z 0112/0212 00000KT 5SM BR SCT003
      TEMPO 0112/0113 2SM BR BKN005
     FM011300 00000KT P6SM SCT010
      TEMPO 0113/0115 5SM BR BKN009
     FM011500 02005KT P6SM BKN020
     FM012000 VRB03KT P6SM SCT035=



000
FTUS42 KRAH 011136
TAFRWI
TAF
KRWI 011136Z 0112/0212 00000KT 6SM BR OVC007
      TEMPO 0112/0113 5SM BR
     FM011600 02005KT P6SM BKN020
     FM011900 VRB03KT P6SM VCSH BKN035
     FM012300 VRB03KT P6SM SCT035=



000
FTUS42 KRAH 011136
TAFGSO
TAF
KGSO 011136Z 0112/0212 00000KT P6SM SKC
      TEMPO 0112/0113 4SM BR SCT003
     FM011330 28004KT P6SM SCT020
     FM011800 VRB04KT P6SM FEW035=



000
FTUS42 KRAH 011136
TAFINT
TAF
KINT 011136Z 0112/0212 VRB03KT P6SM SKC
      TEMPO 0112/0113 4SM BR SCT005
     FM011330 28004KT P6SM SCT020
     FM011800 VRB04KT P6SM FEW035=



000
FTUS42 KRAH 011136
TAFFAY
TAF
KFAY 011136Z 0112/0212 34003KT 4SM BR SCT005
      TEMPO 0112/0113 1 1/2SM BR BKN003
     FM011300 33004KT 5SM BR BKN016
     FM011500 35005KT P6SM BKN020
     FM011800 01005KT P6SM BKN030
     FM012000 VRB04KT P6SM SCT035=



000
FTUS42 KRAH 011136
TAFINT
TAF
KINT 011136Z 0112/0212 VRB03KT P6SM SKC
      TEMPO 0112/0113 4SM BR SCT005
     FM011330 28004KT P6SM SCT020
     FM011800 VRB04KT P6SM FEW035=



000
FTUS42 KRAH 011136
TAFRWI
TAF
KRWI 011136Z 0112/0212 00000KT 6SM BR OVC007
      TEMPO 0112/0113 5SM BR
     FM011600 02005KT P6SM BKN020
     FM011900 VRB03KT P6SM VCSH BKN035
     FM012300 VRB03KT P6SM SCT035=



000
FTUS42 KRAH 011136
TAFRDU
TAF
KRDU 011136Z 0112/0212 00000KT 5SM BR SCT003
      TEMPO 0112/0113 2SM BR BKN005
     FM011300 00000KT P6SM SCT010
      TEMPO 0113/0115 5SM BR BKN009
     FM011500 02005KT P6SM BKN020
     FM012000 VRB03KT P6SM SCT035=



000
FTUS42 KRAH 011136
TAFGSO
TAF
KGSO 011136Z 0112/0212 00000KT P6SM SKC
      TEMPO 0112/0113 4SM BR SCT003
     FM011330 28004KT P6SM SCT020
     FM011800 VRB04KT P6SM FEW035=



000
FTUS42 KRAH 011136
TAFRWI
TAF
KRWI 011136Z 0112/0212 00000KT 6SM BR OVC007
      TEMPO 0112/0113 5SM BR
     FM011600 02005KT P6SM BKN020
     FM011900 VRB03KT P6SM VCSH BKN035
     FM012300 VRB03KT P6SM SCT035=



000
FTUS42 KRAH 011136
TAFRDU
TAF
KRDU 011136Z 0112/0212 00000KT 5SM BR SCT003
      TEMPO 0112/0113 2SM BR BKN005
     FM011300 00000KT P6SM SCT010
      TEMPO 0113/0115 5SM BR BKN009
     FM011500 02005KT P6SM BKN020
     FM012000 VRB03KT P6SM SCT035=



000
FTUS42 KRAH 011136
TAFRDU
TAF
KRDU 011136Z 0112/0212 00000KT 5SM BR SCT003
      TEMPO 0112/0113 2SM BR BKN005
     FM011300 00000KT P6SM SCT010
      TEMPO 0113/0115 5SM BR BKN009
     FM011500 02005KT P6SM BKN020
     FM012000 VRB03KT P6SM SCT035=



000
FTUS42 KRAH 011136
TAFRWI
TAF
KRWI 011136Z 0112/0212 00000KT 6SM BR OVC007
      TEMPO 0112/0113 5SM BR
     FM011600 02005KT P6SM BKN020
     FM011900 VRB03KT P6SM VCSH BKN035
     FM012300 VRB03KT P6SM SCT035=



000
FTUS42 KRAH 011136
TAFINT
TAF
KINT 011136Z 0112/0212 VRB03KT P6SM SKC
      TEMPO 0112/0113 4SM BR SCT005
     FM011330 28004KT P6SM SCT020
     FM011800 VRB04KT P6SM FEW035=



000
FTUS42 KRAH 011136
TAFINT
TAF
KINT 011136Z 0112/0212 VRB03KT P6SM SKC
      TEMPO 0112/0113 4SM BR SCT005
     FM011330 28004KT P6SM SCT020
     FM011800 VRB04KT P6SM FEW035=



000
FTUS42 KRAH 011136
TAFFAY
TAF
KFAY 011136Z 0112/0212 34003KT 4SM BR SCT005
      TEMPO 0112/0113 1 1/2SM BR BKN003
     FM011300 33004KT 5SM BR BKN016
     FM011500 35005KT P6SM BKN020
     FM011800 01005KT P6SM BKN030
     FM012000 VRB04KT P6SM SCT035=



000
FTUS42 KRAH 011136
TAFGSO
TAF
KGSO 011136Z 0112/0212 00000KT P6SM SKC
      TEMPO 0112/0113 4SM BR SCT003
     FM011330 28004KT P6SM SCT020
     FM011800 VRB04KT P6SM FEW035=



000
FTUS42 KRAH 011136
TAFFAY
TAF
KFAY 011136Z 0112/0212 34003KT 4SM BR SCT005
      TEMPO 0112/0113 1 1/2SM BR BKN003
     FM011300 33004KT 5SM BR BKN016
     FM011500 35005KT P6SM BKN020
     FM011800 01005KT P6SM BKN030
     FM012000 VRB04KT P6SM SCT035=



000
FTUS42 KRAH 011136
TAFFAY
TAF
KFAY 011136Z 0112/0212 34003KT 4SM BR SCT005
      TEMPO 0112/0113 1 1/2SM BR BKN003
     FM011300 33004KT 5SM BR BKN016
     FM011500 35005KT P6SM BKN020
     FM011800 01005KT P6SM BKN030
     FM012000 VRB04KT P6SM SCT035=



000
FTUS42 KRAH 011110 AAD
TAFRDU
TAF AMD
KRDU 011110Z 0111/0206 00000KT 5SM BR SCT003
      TEMPO 0111/0113 2SM BR BKN005
     FM011300 00000KT 5SM BR BKN009
      TEMPO 0113/0115 6SM BR SCT010
     FM011500 02005KT P6SM BKN020
     FM012000 VRB03KT P6SM SCT035=



000
FTUS42 KRAH 011110 AAD
TAFRDU
TAF AMD
KRDU 011110Z 0111/0206 00000KT 5SM BR SCT003
      TEMPO 0111/0113 2SM BR BKN005
     FM011300 00000KT 5SM BR BKN009
      TEMPO 0113/0115 6SM BR SCT010
     FM011500 02005KT P6SM BKN020
     FM012000 VRB03KT P6SM SCT035=



000
FTUS42 KRAH 011110 AAD
TAFRDU
TAF AMD
KRDU 011110Z 0111/0206 00000KT 5SM BR SCT003
      TEMPO 0111/0113 2SM BR BKN005
     FM011300 00000KT 5SM BR BKN009
      TEMPO 0113/0115 6SM BR SCT010
     FM011500 02005KT P6SM BKN020
     FM012000 VRB03KT P6SM SCT035=



000
FTUS42 KRAH 011110 AAD
TAFRDU
TAF AMD
KRDU 011110Z 0111/0206 00000KT 5SM BR SCT003
      TEMPO 0111/0113 2SM BR BKN005
     FM011300 00000KT 5SM BR BKN009
      TEMPO 0113/0115 6SM BR SCT010
     FM011500 02005KT P6SM BKN020
     FM012000 VRB03KT P6SM SCT035=



000
FTUS42 KRAH 011104 AAC
TAFFAY
TAF AMD
KFAY 011104Z 0111/0206 34003KT 4SM BR SCT005
      TEMPO 0111/0113 1 1/2SM BR BKN003
     FM011300 33004KT 5SM BR BKN016
     FM011500 35005KT P6SM BKN020
     FM011800 01005KT P6SM BKN030
     FM012000 VRB04KT P6SM SCT035=



000
FTUS42 KRAH 011104 AAC
TAFFAY
TAF AMD
KFAY 011104Z 0111/0206 34003KT 4SM BR SCT005
      TEMPO 0111/0113 1 1/2SM BR BKN003
     FM011300 33004KT 5SM BR BKN016
     FM011500 35005KT P6SM BKN020
     FM011800 01005KT P6SM BKN030
     FM012000 VRB04KT P6SM SCT035=



000
FTUS42 KRAH 011025 AAC
TAFRDU
TAF AMD
KRDU 011025Z 0110/0206 00000KT 2SM BR SCT003
      TEMPO 0110/0113 1/2SM FG VV001
     FM011300 00000KT 2SM BR BKN005
      TEMPO 0113/0115 6SM BR SCT010
     FM011500 02005KT P6SM BKN020
     FM012000 VRB03KT P6SM SCT035=



000
FTUS42 KRAH 011025 AAC
TAFRDU
TAF AMD
KRDU 011025Z 0110/0206 00000KT 2SM BR SCT003
      TEMPO 0110/0113 1/2SM FG VV001
     FM011300 00000KT 2SM BR BKN005
      TEMPO 0113/0115 6SM BR SCT010
     FM011500 02005KT P6SM BKN020
     FM012000 VRB03KT P6SM SCT035=



000
FTUS42 KRAH 011025 AAC
TAFRDU
TAF AMD
KRDU 011025Z 0110/0206 00000KT 2SM BR SCT003
      TEMPO 0110/0113 1/2SM FG VV001
     FM011300 00000KT 2SM BR BKN005
      TEMPO 0113/0115 6SM BR SCT010
     FM011500 02005KT P6SM BKN020
     FM012000 VRB03KT P6SM SCT035=



000
FTUS42 KRAH 011025 AAC
TAFRDU
TAF AMD
KRDU 011025Z 0110/0206 00000KT 2SM BR SCT003
      TEMPO 0110/0113 1/2SM FG VV001
     FM011300 00000KT 2SM BR BKN005
      TEMPO 0113/0115 6SM BR SCT010
     FM011500 02005KT P6SM BKN020
     FM012000 VRB03KT P6SM SCT035=



000
FTUS42 KRAH 011023 AAC
TAFRWI
TAF AMD
KRWI 011023Z 0110/0206 00000KT 5SM BR OVC005
      TEMPO 0110/0113 1SM BR VV002
     FM011600 02005KT P6SM BKN020
     FM011900 VRB03KT P6SM VCSH BKN035
     FM012300 VRB03KT P6SM SCT035=



000
FTUS42 KRAH 011023 AAC
TAFRWI
TAF AMD
KRWI 011023Z 0110/0206 00000KT 5SM BR OVC005
      TEMPO 0110/0113 1SM BR VV002
     FM011600 02005KT P6SM BKN020
     FM011900 VRB03KT P6SM VCSH BKN035
     FM012300 VRB03KT P6SM SCT035=



000
FTUS42 KRAH 011021 AAB
TAFINT
TAF AMD
KINT 011021Z 0110/0206 VRB03KT P6SM SKC
      TEMPO 0111/0113 4SM BR SCT005
     FM011330 28004KT P6SM SCT020
     FM011800 VRB04KT P6SM FEW035=



000
FTUS42 KRAH 011021 AAB
TAFINT
TAF AMD
KINT 011021Z 0110/0206 VRB03KT P6SM SKC
      TEMPO 0111/0113 4SM BR SCT005
     FM011330 28004KT P6SM SCT020
     FM011800 VRB04KT P6SM FEW035=



000
FTUS42 KRAH 011020 AAB
TAFGSO
TAF AMD
KGSO 011020Z 0110/0206 00000KT P6SM SKC
      TEMPO 0111/0113 4SM BR SCT003
     FM011330 28004KT P6SM SCT020
     FM011800 VRB04KT P6SM FEW035=



000
FTUS42 KRAH 011020 AAB
TAFGSO
TAF AMD
KGSO 011020Z 0110/0206 00000KT P6SM SKC
      TEMPO 0111/0113 4SM BR SCT003
     FM011330 28004KT P6SM SCT020
     FM011800 VRB04KT P6SM FEW035=



000
FTUS42 KRAH 011020 AAB
TAFGSO
TAF AMD
KGSO 011020Z 0110/0206 00000KT P6SM SKC
      TEMPO 0111/0113 4SM BR SCT003
     FM011330 28004KT P6SM SCT020
     FM011800 VRB04KT P6SM FEW035=



000
FTUS42 KRAH 011020 AAB
TAFGSO
TAF AMD
KGSO 011020Z 0110/0206 00000KT P6SM SKC
      TEMPO 0111/0113 4SM BR SCT003
     FM011330 28004KT P6SM SCT020
     FM011800 VRB04KT P6SM FEW035=



000
FTUS42 KRAH 010906 AAB
TAFRWI
TAF AMD
KRWI 010906Z 0109/0206 00000KT 3SM BR OVC003
      TEMPO 0109/0112 1/4SM FG VV001
     FM011400 00000KT 3SM BR BKN009
     FM011600 02005KT P6SM BKN020
     FM011900 VRB03KT P6SM VCSH BKN035
     FM012300 VRB03KT P6SM SCT035=



000
FTUS42 KRAH 010906 AAB
TAFRWI
TAF AMD
KRWI 010906Z 0109/0206 00000KT 3SM BR OVC003
      TEMPO 0109/0112 1/4SM FG VV001
     FM011400 00000KT 3SM BR BKN009
     FM011600 02005KT P6SM BKN020
     FM011900 VRB03KT P6SM VCSH BKN035
     FM012300 VRB03KT P6SM SCT035=



000
FTUS42 KRAH 010906 AAB
TAFRWI
TAF AMD
KRWI 010906Z 0109/0206 00000KT 3SM BR OVC003
      TEMPO 0109/0112 1/4SM FG VV001
     FM011400 00000KT 3SM BR BKN009
     FM011600 02005KT P6SM BKN020
     FM011900 VRB03KT P6SM VCSH BKN035
     FM012300 VRB03KT P6SM SCT035=



000
FTUS42 KRAH 010906 AAB
TAFRWI
TAF AMD
KRWI 010906Z 0109/0206 00000KT 3SM BR OVC003
      TEMPO 0109/0112 1/4SM FG VV001
     FM011400 00000KT 3SM BR BKN009
     FM011600 02005KT P6SM BKN020
     FM011900 VRB03KT P6SM VCSH BKN035
     FM012300 VRB03KT P6SM SCT035=



000
FTUS42 KRAH 010905 AAB
TAFFAY
TAF AMD
KFAY 010905Z 0109/0206 34003KT P6SM SCT005
      TEMPO 0109/0110 2SM BR OVC004
     FM011030 00000KT 2SM BR OVC003
      TEMPO 0111/0112 1/2SM FG VV001
     FM011300 33004KT 4SM BR BKN016
     FM011500 35005KT P6SM BKN020
     FM011800 01005KT P6SM BKN030
     FM012000 VRB04KT P6SM SCT035=



000
FTUS42 KRAH 010905 AAB
TAFFAY
TAF AMD
KFAY 010905Z 0109/0206 34003KT P6SM SCT005
      TEMPO 0109/0110 2SM BR OVC004
     FM011030 00000KT 2SM BR OVC003
      TEMPO 0111/0112 1/2SM FG VV001
     FM011300 33004KT 4SM BR BKN016
     FM011500 35005KT P6SM BKN020
     FM011800 01005KT P6SM BKN030
     FM012000 VRB04KT P6SM SCT035=



000
FTUS42 KRAH 010905 AAB
TAFFAY
TAF AMD
KFAY 010905Z 0109/0206 34003KT P6SM SCT005
      TEMPO 0109/0110 2SM BR OVC004
     FM011030 00000KT 2SM BR OVC003
      TEMPO 0111/0112 1/2SM FG VV001
     FM011300 33004KT 4SM BR BKN016
     FM011500 35005KT P6SM BKN020
     FM011800 01005KT P6SM BKN030
     FM012000 VRB04KT P6SM SCT035=



000
FTUS42 KRAH 010846 AAA
TAFINT
TAF AMD
KINT 010846Z 0109/0206 VRB03KT P6SM SKC
     FM011000 00000KT 4SM BR SCT003
      TEMPO 0111/0112 2SM BR BKN002
     FM011330 28004KT P6SM SCT020
     FM011800 VRB04KT P6SM FEW035=



000
FTUS42 KRAH 010846 AAA
TAFGSO
TAF AMD
KGSO 010846Z 0109/0206 00000KT P6SM SKC
     FM011000 00000KT 4SM BR SCT003
      TEMPO 0110/0112 2SM BR BKN002
     FM011330 28004KT P6SM SCT020
     FM011800 VRB04KT P6SM FEW035=



000
FTUS42 KRAH 010846 AAA
TAFGSO
TAF AMD
KGSO 010846Z 0109/0206 00000KT P6SM SKC
     FM011000 00000KT 4SM BR SCT003
      TEMPO 0110/0112 2SM BR BKN002
     FM011330 28004KT P6SM SCT020
     FM011800 VRB04KT P6SM FEW035=



000
FTUS42 KRAH 010846 AAA
TAFINT
TAF AMD
KINT 010846Z 0109/0206 VRB03KT P6SM SKC
     FM011000 00000KT 4SM BR SCT003
      TEMPO 0111/0112 2SM BR BKN002
     FM011330 28004KT P6SM SCT020
     FM011800 VRB04KT P6SM FEW035=



000
FTUS42 KRAH 010846 AAA
TAFINT
TAF AMD
KINT 010846Z 0109/0206 VRB03KT P6SM SKC
     FM011000 00000KT 4SM BR SCT003
      TEMPO 0111/0112 2SM BR BKN002
     FM011330 28004KT P6SM SCT020
     FM011800 VRB04KT P6SM FEW035=



000
FTUS42 KRAH 010846 AAA
TAFINT
TAF AMD
KINT 010846Z 0109/0206 VRB03KT P6SM SKC
     FM011000 00000KT 4SM BR SCT003
      TEMPO 0111/0112 2SM BR BKN002
     FM011330 28004KT P6SM SCT020
     FM011800 VRB04KT P6SM FEW035=



000
FTUS42 KRAH 010845 AAB
TAFRDU
TAF AMD
KRDU 010845Z 0109/0206 00000KT 1/4SM FG VV001
      TEMPO 0111/0113 1SM BR OVC003
     FM011300 00000KT 2SM BR BKN005
      TEMPO 0113/0115 6SM BR SCT010
     FM011500 02005KT P6SM BKN020
     FM012000 VRB03KT P6SM SCT035=



000
FTUS42 KRAH 010845 AAB
TAFRDU
TAF AMD
KRDU 010845Z 0109/0206 00000KT 1/4SM FG VV001
      TEMPO 0111/0113 1SM BR OVC003
     FM011300 00000KT 2SM BR BKN005
      TEMPO 0113/0115 6SM BR SCT010
     FM011500 02005KT P6SM BKN020
     FM012000 VRB03KT P6SM SCT035=



000
FTUS42 KRAH 010845 AAB
TAFRDU
TAF AMD
KRDU 010845Z 0109/0206 00000KT 1/4SM FG VV001
      TEMPO 0111/0113 1SM BR OVC003
     FM011300 00000KT 2SM BR BKN005
      TEMPO 0113/0115 6SM BR SCT010
     FM011500 02005KT P6SM BKN020
     FM012000 VRB03KT P6SM SCT035=



000
FTUS42 KRAH 010807 AAA
TAFRWI
TAF AMD
KRWI 010807Z 0108/0206 00000KT 1SM BR OVC003
      TEMPO 0109/0112 1/4SM FG VV001
     FM011400 00000KT 3SM BR BKN009
     FM011600 02005KT P6SM BKN020
     FM011900 VRB03KT P6SM VCSH BKN035
     FM012300 VRB03KT P6SM SCT035=



000
FTUS42 KRAH 010807 AAA
TAFRWI
TAF AMD
KRWI 010807Z 0108/0206 00000KT 1SM BR OVC003
      TEMPO 0109/0112 1/4SM FG VV001
     FM011400 00000KT 3SM BR BKN009
     FM011600 02005KT P6SM BKN020
     FM011900 VRB03KT P6SM VCSH BKN035
     FM012300 VRB03KT P6SM SCT035=



000
FTUS42 KRAH 010806 AAA
TAFFAY
TAF AMD
KFAY 010806Z 0108/0206 34003KT P6SM SCT005
      TEMPO 0108/0109 2SM BR OVC004
     FM010900 00000KT 2SM BR OVC003
      TEMPO 0109/0112 1/2SM FG VV001
     FM011300 33004KT 4SM BR BKN016
     FM011500 35005KT P6SM BKN020
     FM011800 01005KT P6SM BKN030
     FM012000 VRB04KT P6SM SCT035=



000
FTUS42 KRAH 010806 AAA
TAFFAY
TAF AMD
KFAY 010806Z 0108/0206 34003KT P6SM SCT005
      TEMPO 0108/0109 2SM BR OVC004
     FM010900 00000KT 2SM BR OVC003
      TEMPO 0109/0112 1/2SM FG VV001
     FM011300 33004KT 4SM BR BKN016
     FM011500 35005KT P6SM BKN020
     FM011800 01005KT P6SM BKN030
     FM012000 VRB04KT P6SM SCT035=



000
FTUS42 KRAH 010555 AAA
TAFRDU
TAF AMD
KRDU 010555Z 0106/0206 00000KT 1/4SM FG VV001
      TEMPO 0106/0110 1SM BR OVC003
     FM011300 00000KT 2SM BR BKN005
      TEMPO 0113/0115 6SM BR SCT010
     FM011500 02005KT P6SM BKN020
     FM012000 VRB03KT P6SM SCT035=



000
FTUS42 KRAH 010555 AAA
TAFRDU
TAF AMD
KRDU 010555Z 0106/0206 00000KT 1/4SM FG VV001
      TEMPO 0106/0110 1SM BR OVC003
     FM011300 00000KT 2SM BR BKN005
      TEMPO 0113/0115 6SM BR SCT010
     FM011500 02005KT P6SM BKN020
     FM012000 VRB03KT P6SM SCT035=



000
FTUS42 KRAH 010555 AAA
TAFRDU
TAF AMD
KRDU 010555Z 0106/0206 00000KT 1/4SM FG VV001
      TEMPO 0106/0110 1SM BR OVC003
     FM011300 00000KT 2SM BR BKN005
      TEMPO 0113/0115 6SM BR SCT010
     FM011500 02005KT P6SM BKN020
     FM012000 VRB03KT P6SM SCT035=



000
FTUS42 KRAH 010555 AAA
TAFRDU
TAF AMD
KRDU 010555Z 0106/0206 00000KT 1/4SM FG VV001
      TEMPO 0106/0110 1SM BR OVC003
     FM011300 00000KT 2SM BR BKN005
      TEMPO 0113/0115 6SM BR SCT010
     FM011500 02005KT P6SM BKN020
     FM012000 VRB03KT P6SM SCT035=



000
FTUS42 KRAH 010526
TAFFAY
TAF
KFAY 010526Z 0106/0206 34003KT 3SM BR BKN011
      TEMPO 0106/0108 1 1/2SM BR OVC004
     FM010900 00000KT 1SM BR OVC003
      TEMPO 0109/0112 1/4SM FG VV001
     FM011300 33004KT 4SM BR BKN016
     FM011500 35005KT P6SM BKN020
     FM011800 01005KT P6SM BKN030
     FM012000 VRB04KT P6SM SCT035=



000
FTUS42 KRAH 010526
TAFINT
TAF
KINT 010526Z 0106/0206 VRB03KT P6SM SKC
     FM010900 00000KT 4SM BR SCT003
      TEMPO 0109/0112 2SM BR BKN002
     FM011330 28004KT P6SM SCT020
     FM011800 VRB04KT P6SM FEW035=



000
FTUS42 KRAH 010526
TAFGSO
TAF
KGSO 010526Z 0106/0206 VRB03KT P6SM SKC
     FM010900 00000KT 4SM BR SCT003
      TEMPO 0109/0112 2SM BR BKN002
     FM011330 28004KT P6SM SCT020
     FM011800 VRB04KT P6SM FEW035=



000
FTUS42 KRAH 010526
TAFRWI
TAF
KRWI 010526Z 0106/0206 VRB03KT 3SM BR BKN008
      TEMPO 0106/0108 1SM BR BKN004
     FM010800 00000KT 1SM BR BKN004
      TEMPO 0109/0112 1/4SM FG VV001
     FM011400 00000KT 3SM BR BKN009
     FM011600 02005KT P6SM BKN020
     FM011900 VRB03KT P6SM VCSH BKN035
     FM012300 VRB03KT P6SM SCT035=



000
FTUS42 KRAH 010526
TAFRDU
TAF
KRDU 010526Z 0106/0206 00000KT 4SM BR BKN004
      TEMPO 0106/0108 2SM BR VV002
     FM010800 00000KT 1SM BR OVC003
      TEMPO 0109/0112 1/4SM FG VV001
     FM011200 00000KT 2SM BR BKN005
      TEMPO 0113/0115 6SM BR SCT010
     FM011500 02005KT P6SM BKN020
     FM012000 VRB03KT P6SM SCT035=



000
FTUS42 KRAH 010526
TAFGSO
TAF
KGSO 010526Z 0106/0206 VRB03KT P6SM SKC
     FM010900 00000KT 4SM BR SCT003
      TEMPO 0109/0112 2SM BR BKN002
     FM011330 28004KT P6SM SCT020
     FM011800 VRB04KT P6SM FEW035=



000
FTUS42 KRAH 010526
TAFINT
TAF
KINT 010526Z 0106/0206 VRB03KT P6SM SKC
     FM010900 00000KT 4SM BR SCT003
      TEMPO 0109/0112 2SM BR BKN002
     FM011330 28004KT P6SM SCT020
     FM011800 VRB04KT P6SM FEW035=



000
FTUS42 KRAH 010526
TAFRWI
TAF
KRWI 010526Z 0106/0206 VRB03KT 3SM BR BKN008
      TEMPO 0106/0108 1SM BR BKN004
     FM010800 00000KT 1SM BR BKN004
      TEMPO 0109/0112 1/4SM FG VV001
     FM011400 00000KT 3SM BR BKN009
     FM011600 02005KT P6SM BKN020
     FM011900 VRB03KT P6SM VCSH BKN035
     FM012300 VRB03KT P6SM SCT035=



000
FTUS42 KRAH 010526
TAFFAY
TAF
KFAY 010526Z 0106/0206 34003KT 3SM BR BKN011
      TEMPO 0106/0108 1 1/2SM BR OVC004
     FM010900 00000KT 1SM BR OVC003
      TEMPO 0109/0112 1/4SM FG VV001
     FM011300 33004KT 4SM BR BKN016
     FM011500 35005KT P6SM BKN020
     FM011800 01005KT P6SM BKN030
     FM012000 VRB04KT P6SM SCT035=



000
FTUS42 KRAH 010526
TAFRDU
TAF
KRDU 010526Z 0106/0206 00000KT 4SM BR BKN004
      TEMPO 0106/0108 2SM BR VV002
     FM010800 00000KT 1SM BR OVC003
      TEMPO 0109/0112 1/4SM FG VV001
     FM011200 00000KT 2SM BR BKN005
      TEMPO 0113/0115 6SM BR SCT010
     FM011500 02005KT P6SM BKN020
     FM012000 VRB03KT P6SM SCT035=



000
FTUS42 KRAH 010526
TAFRWI
TAF
KRWI 010526Z 0106/0206 VRB03KT 3SM BR BKN008
      TEMPO 0106/0108 1SM BR BKN004
     FM010800 00000KT 1SM BR BKN004
      TEMPO 0109/0112 1/4SM FG VV001
     FM011400 00000KT 3SM BR BKN009
     FM011600 02005KT P6SM BKN020
     FM011900 VRB03KT P6SM VCSH BKN035
     FM012300 VRB03KT P6SM SCT035=



000
FTUS42 KRAH 010526
TAFRDU
TAF
KRDU 010526Z 0106/0206 00000KT 4SM BR BKN004
      TEMPO 0106/0108 2SM BR VV002
     FM010800 00000KT 1SM BR OVC003
      TEMPO 0109/0112 1/4SM FG VV001
     FM011200 00000KT 2SM BR BKN005
      TEMPO 0113/0115 6SM BR SCT010
     FM011500 02005KT P6SM BKN020
     FM012000 VRB03KT P6SM SCT035=



000
FTUS42 KRAH 010526
TAFFAY
TAF
KFAY 010526Z 0106/0206 34003KT 3SM BR BKN011
      TEMPO 0106/0108 1 1/2SM BR OVC004
     FM010900 00000KT 1SM BR OVC003
      TEMPO 0109/0112 1/4SM FG VV001
     FM011300 33004KT 4SM BR BKN016
     FM011500 35005KT P6SM BKN020
     FM011800 01005KT P6SM BKN030
     FM012000 VRB04KT P6SM SCT035=



000
FTUS42 KRAH 010526
TAFINT
TAF
KINT 010526Z 0106/0206 VRB03KT P6SM SKC
     FM010900 00000KT 4SM BR SCT003
      TEMPO 0109/0112 2SM BR BKN002
     FM011330 28004KT P6SM SCT020
     FM011800 VRB04KT P6SM FEW035=



000
FTUS42 KRAH 010526
TAFGSO
TAF
KGSO 010526Z 0106/0206 VRB03KT P6SM SKC
     FM010900 00000KT 4SM BR SCT003
      TEMPO 0109/0112 2SM BR BKN002
     FM011330 28004KT P6SM SCT020
     FM011800 VRB04KT P6SM FEW035=



000
FTUS42 KRAH 010250 AAA
TAFRWI
TAF AMD
KRWI 010250Z 0103/0124 VRB05KT 5SM BR BKN012
     FM010800 00000KT 2SM BR SCT001
      TEMPO 0109/0112 1/4SM FG VV001
     FM011200 00000KT 3SM BR SCT005
     FM011300 VRB05KT P6SM SCT035=



000
FTUS42 KRAH 010250 AAA
TAFRWI
TAF AMD
KRWI 010250Z 0103/0124 VRB05KT 5SM BR BKN012
     FM010800 00000KT 2SM BR SCT001
      TEMPO 0109/0112 1/4SM FG VV001
     FM011200 00000KT 3SM BR SCT005
     FM011300 VRB05KT P6SM SCT035=



000
FTUS42 KRAH 010250 AAA
TAFRWI
TAF AMD
KRWI 010250Z 0103/0124 VRB05KT 5SM BR BKN012
     FM010800 00000KT 2SM BR SCT001
      TEMPO 0109/0112 1/4SM FG VV001
     FM011200 00000KT 3SM BR SCT005
     FM011300 VRB05KT P6SM SCT035=



000
FTUS42 KRAH 010250 AAA
TAFRWI
TAF AMD
KRWI 010250Z 0103/0124 VRB05KT 5SM BR BKN012
     FM010800 00000KT 2SM BR SCT001
      TEMPO 0109/0112 1/4SM FG VV001
     FM011200 00000KT 3SM BR SCT005
     FM011300 VRB05KT P6SM SCT035=



000
FTUS42 KRAH 010249 AAB
TAFRDU
TAF AMD
KRDU 010249Z 0103/0124 00000KT P6SM SCT012
      TEMPO 0103/0107 5SM BR FEW005 BKN012
     FM010700 00000KT 2SM BR BKN005
      TEMPO 0108/0112 1/4SM FG VV001
     FM011200 00000KT 2SM BR BKN005
      TEMPO 0112/0115 5SM BR SCT010
     FM011500 VRB03KT P6SM SCT035=



000
FTUS42 KRAH 010249 AAB
TAFRDU
TAF AMD
KRDU 010249Z 0103/0124 00000KT P6SM SCT012
      TEMPO 0103/0107 5SM BR FEW005 BKN012
     FM010700 00000KT 2SM BR BKN005
      TEMPO 0108/0112 1/4SM FG VV001
     FM011200 00000KT 2SM BR BKN005
      TEMPO 0112/0115 5SM BR SCT010
     FM011500 VRB03KT P6SM SCT035=



000
FTUS42 KRAH 010223 AAA
TAFRDU
TAF AMD
KRDU 010223Z 0102/0124 00000KT P6SM SCT012
     FM010600 00000KT 5SM BR SCT005
     FM010800 00000KT 2SM BR BKN005
      TEMPO 0108/0112 1/4SM FG VV001
     FM011200 00000KT 2SM BR BKN005
      TEMPO 0112/0115 5SM BR SCT010
     FM011500 VRB03KT P6SM SCT035=



000
FTUS42 KRAH 010223 AAA
TAFRDU
TAF AMD
KRDU 010223Z 0102/0124 00000KT P6SM SCT012
     FM010600 00000KT 5SM BR SCT005
     FM010800 00000KT 2SM BR BKN005
      TEMPO 0108/0112 1/4SM FG VV001
     FM011200 00000KT 2SM BR BKN005
      TEMPO 0112/0115 5SM BR SCT010
     FM011500 VRB03KT P6SM SCT035=



000
FTUS42 KRAH 010223 AAA
TAFRDU
TAF AMD
KRDU 010223Z 0102/0124 00000KT P6SM SCT012
     FM010600 00000KT 5SM BR SCT005
     FM010800 00000KT 2SM BR BKN005
      TEMPO 0108/0112 1/4SM FG VV001
     FM011200 00000KT 2SM BR BKN005
      TEMPO 0112/0115 5SM BR SCT010
     FM011500 VRB03KT P6SM SCT035=



000
FTUS42 KRAH 312320
TAFRWI
TAF
KRWI 312320Z 0100/0124 VRB05KT P6SM SCT030
      TEMPO 0105/0109 00000KT 3SM BR
     FM010900 00000KT 2SM BR SCT001
      TEMPO 0109/0112 1/4SM FG VV001
     FM011200 00000KT 3SM BR SCT005
     FM011300 VRB05KT P6SM SCT035=



000
FTUS42 KRAH 312320
TAFRWI
TAF
KRWI 312320Z 0100/0124 VRB05KT P6SM SCT030
      TEMPO 0105/0109 00000KT 3SM BR
     FM010900 00000KT 2SM BR SCT001
      TEMPO 0109/0112 1/4SM FG VV001
     FM011200 00000KT 3SM BR SCT005
     FM011300 VRB05KT P6SM SCT035=



000
FTUS42 KRAH 312320
TAFFAY
TAF
KFAY 312320Z 0100/0124 VRB05KT P6SM SCT030
      TEMPO 0105/0109 00000KT 3SM BR
     FM010900 00000KT 2SM BR SCT001
      TEMPO 0109/0112 1/4SM FG VV001
     FM011200 00000KT 3SM BR SCT005
     FM011300 VRB05KT P6SM SCT035=



000
FTUS42 KRAH 312320
TAFINT
TAF
KINT 312320Z 0100/0124 VRB05KT P6SM SCT035
      TEMPO 0109/0113 BKN005
     FM011400 VRB05KT P6SM SCT030=



000
FTUS42 KRAH 312320
TAFFAY
TAF
KFAY 312320Z 0100/0124 VRB05KT P6SM SCT030
      TEMPO 0105/0109 00000KT 3SM BR
     FM010900 00000KT 2SM BR SCT001
      TEMPO 0109/0112 1/4SM FG VV001
     FM011200 00000KT 3SM BR SCT005
     FM011300 VRB05KT P6SM SCT035=



000
FTUS42 KRAH 312320
TAFRDU
TAF
KRDU 312320Z 0100/0124 VRB05KT P6SM SCT030
      TEMPO 0102/0106 OVC005
     FM010600 VRB03KT P6SM OVC005
     FM011400 VRB05KT P6SM BKN015
      TEMPO 0114/0116 BKN025
     FM011600 VRB03KT P6SM SCT035=



000
FTUS42 KRAH 312320
TAFRDU
TAF
KRDU 312320Z 0100/0124 VRB05KT P6SM SCT030
      TEMPO 0102/0106 OVC005
     FM010600 VRB03KT P6SM OVC005
     FM011400 VRB05KT P6SM BKN015
      TEMPO 0114/0116 BKN025
     FM011600 VRB03KT P6SM SCT035=



000
FTUS42 KRAH 312320
TAFGSO
TAF
KGSO 312320Z 0100/0124 VRB05KT P6SM SCT035
      TEMPO 0109/0113 BKN005
     FM011400 VRB05KT P6SM SCT030=



000
FTUS42 KRAH 312229 AAB
TAFINT
TAF AMD
KINT 312229Z 3122/0118 VRB05KT P6SM SCT035
      TEMPO 0109/0113 BKN005
     FM011400 VRB05KT P6SM SCT030=



000
FTUS42 KRAH 312229 AAB
TAFINT
TAF AMD
KINT 312229Z 3122/0118 VRB05KT P6SM SCT035
      TEMPO 0109/0113 BKN005
     FM011400 VRB05KT P6SM SCT030=



000
FTUS42 KRAH 312229 AAB
TAFINT
TAF AMD
KINT 312229Z 3122/0118 VRB05KT P6SM SCT035
      TEMPO 0109/0113 BKN005
     FM011400 VRB05KT P6SM SCT030=



000
FTUS42 KRAH 312229 AAB
TAFINT
TAF AMD
KINT 312229Z 3122/0118 VRB05KT P6SM SCT035
      TEMPO 0109/0113 BKN005
     FM011400 VRB05KT P6SM SCT030=



000
FTUS42 KRAH 312228 AAB
TAFGSO
TAF AMD
KGSO 312228Z 3122/0118 VRB05KT P6SM SCT035
      TEMPO 0109/0113 BKN005
     FM011400 VRB05KT P6SM SCT030=



000
FTUS42 KRAH 312228 AAB
TAFGSO
TAF AMD
KGSO 312228Z 3122/0118 VRB05KT P6SM SCT035
      TEMPO 0109/0113 BKN005
     FM011400 VRB05KT P6SM SCT030=



000
FTUS42 KRAH 312228 AAB
TAFRDU
TAF AMD
KRDU 312228Z 3122/0118 00000KT P6SM BKN012 BKN028
     FM010000 00000KT P6SM SCT025
      TEMPO 0102/0106 OVC005
     FM010600 VRB03KT P6SM OVC005
     FM011400 VRB05KT P6SM BKN015
      TEMPO 0114/0116 BKN025
     FM011600 VRB03KT P6SM SCT035=



000
FTUS42 KRAH 312228 AAB
TAFRDU
TAF AMD
KRDU 312228Z 3122/0118 00000KT P6SM BKN012 BKN028
     FM010000 00000KT P6SM SCT025
      TEMPO 0102/0106 OVC005
     FM010600 VRB03KT P6SM OVC005
     FM011400 VRB05KT P6SM BKN015
      TEMPO 0114/0116 BKN025
     FM011600 VRB03KT P6SM SCT035=



000
FTUS42 KRAH 312228 AAB
TAFRDU
TAF AMD
KRDU 312228Z 3122/0118 00000KT P6SM BKN012 BKN028
     FM010000 00000KT P6SM SCT025
      TEMPO 0102/0106 OVC005
     FM010600 VRB03KT P6SM OVC005
     FM011400 VRB05KT P6SM BKN015
      TEMPO 0114/0116 BKN025
     FM011600 VRB03KT P6SM SCT035=



000
FTUS42 KRAH 312228 AAB
TAFRDU
TAF AMD
KRDU 312228Z 3122/0118 00000KT P6SM BKN012 BKN028
     FM010000 00000KT P6SM SCT025
      TEMPO 0102/0106 OVC005
     FM010600 VRB03KT P6SM OVC005
     FM011400 VRB05KT P6SM BKN015
      TEMPO 0114/0116 BKN025
     FM011600 VRB03KT P6SM SCT035=



000
FTUS42 KRAH 312228 AAB
TAFGSO
TAF AMD
KGSO 312228Z 3122/0118 VRB05KT P6SM SCT035
      TEMPO 0109/0113 BKN005
     FM011400 VRB05KT P6SM SCT030=



000
FTUS42 KRAH 312228 AAB
TAFGSO
TAF AMD
KGSO 312228Z 3122/0118 VRB05KT P6SM SCT035
      TEMPO 0109/0113 BKN005
     FM011400 VRB05KT P6SM SCT030=



000
FTUS42 KRAH 312227 AAA
TAFFAY
TAF AMD
KFAY 312227Z 3122/0118 VRB05KT P6SM SCT025
      TEMPO 0105/0109 00000KT 3SM BR
     FM010900 00000KT 2SM BR SCT001
      TEMPO 0109/0112 1/4SM FG VV001
     FM011200 00000KT 3SM BR SCT005
     FM011300 VRB05KT P6SM SCT035=



000
FTUS42 KRAH 312227 AAA
TAFFAY
TAF AMD
KFAY 312227Z 3122/0118 VRB05KT P6SM SCT025
      TEMPO 0105/0109 00000KT 3SM BR
     FM010900 00000KT 2SM BR SCT001
      TEMPO 0109/0112 1/4SM FG VV001
     FM011200 00000KT 3SM BR SCT005
     FM011300 VRB05KT P6SM SCT035=



000
FTUS42 KRAH 312227 AAA
TAFFAY
TAF AMD
KFAY 312227Z 3122/0118 VRB05KT P6SM SCT025
      TEMPO 0105/0109 00000KT 3SM BR
     FM010900 00000KT 2SM BR SCT001
      TEMPO 0109/0112 1/4SM FG VV001
     FM011200 00000KT 3SM BR SCT005
     FM011300 VRB05KT P6SM SCT035=



000
FTUS42 KRAH 312226 AAB
TAFRWI
TAF AMD
KRWI 312226Z 3122/0118 VRB05KT P6SM SCT030
      TEMPO 0105/0109 00000KT 3SM BR
     FM010900 00000KT 2SM BR SCT001
      TEMPO 0109/0112 1/4SM FG VV001
     FM011200 00000KT 3SM BR SCT005
     FM011300 VRB05KT P6SM SCT035=



000
FTUS42 KRAH 312226 AAB
TAFRWI
TAF AMD
KRWI 312226Z 3122/0118 VRB05KT P6SM SCT030
      TEMPO 0105/0109 00000KT 3SM BR
     FM010900 00000KT 2SM BR SCT001
      TEMPO 0109/0112 1/4SM FG VV001
     FM011200 00000KT 3SM BR SCT005
     FM011300 VRB05KT P6SM SCT035=



000
FTUS42 KRAH 312226 AAB
TAFRWI
TAF AMD
KRWI 312226Z 3122/0118 VRB05KT P6SM SCT030
      TEMPO 0105/0109 00000KT 3SM BR
     FM010900 00000KT 2SM BR SCT001
      TEMPO 0109/0112 1/4SM FG VV001
     FM011200 00000KT 3SM BR SCT005
     FM011300 VRB05KT P6SM SCT035=



000
FTUS42 KRAH 312226 AAB
TAFRWI
TAF AMD
KRWI 312226Z 3122/0118 VRB05KT P6SM SCT030
      TEMPO 0105/0109 00000KT 3SM BR
     FM010900 00000KT 2SM BR SCT001
      TEMPO 0109/0112 1/4SM FG VV001
     FM011200 00000KT 3SM BR SCT005
     FM011300 VRB05KT P6SM SCT035=



000
FTUS42 KRAH 312113 AAA
TAFRDU
TAF AMD
KRDU 312113Z 3121/0118 VRB05KT P6SM BKN008
     FM010700 00000KT 2SM BR OVC005
      TEMPO 0108/0112 1SM BR OVC003
     FM011500 VRB03KT 5SM BR SCT012=



000
FTUS42 KRAH 312113 AAA
TAFRDU
TAF AMD
KRDU 312113Z 3121/0118 VRB05KT P6SM BKN008
     FM010700 00000KT 2SM BR OVC005
      TEMPO 0108/0112 1SM BR OVC003
     FM011500 VRB03KT 5SM BR SCT012=



000
FTUS42 KRAH 311943 AAA
TAFINT
TAF AMD
KINT 311943Z 3120/0118 VRB05KT P6SM SCT030 BKN050
     FM312200 VRB05KT P6SM SCT250
     FM010700 VRB04KT 5SM BR SCT008
      TEMPO 0108/0112 2SM BR
     FM011400 VRB04KT P6SM SCT030=



000
FTUS42 KRAH 311943 AAA
TAFINT
TAF AMD
KINT 311943Z 3120/0118 VRB05KT P6SM SCT030 BKN050
     FM312200 VRB05KT P6SM SCT250
     FM010700 VRB04KT 5SM BR SCT008
      TEMPO 0108/0112 2SM BR
     FM011400 VRB04KT P6SM SCT030=



000
FTUS42 KRAH 311943 AAA
TAFGSO
TAF AMD
KGSO 311943Z 3120/0118 VRB05KT P6SM SCT020 BKN050
     FM312200 VRB05KT P6SM SCT250
     FM010700 VRB04KT 5SM BR SCT008
      TEMPO 0108/0112 2SM BR
     FM011400 VRB04KT P6SM SCT030=



000
FTUS42 KRAH 311943 AAA
TAFGSO
TAF AMD
KGSO 311943Z 3120/0118 VRB05KT P6SM SCT020 BKN050
     FM312200 VRB05KT P6SM SCT250
     FM010700 VRB04KT 5SM BR SCT008
      TEMPO 0108/0112 2SM BR
     FM011400 VRB04KT P6SM SCT030=



000
FTUS42 KRAH 311913 AAA
TAFRWI
TAF AMD
KRWI 311913Z 3119/0118 VRB03KT P6SM VCSH BKN018 OVC024
     FM010000 VRB03KT 5SM BR OVC007
     FM010400 00000KT 2SM BR OVC004
     FM010600 00000KT 1/2SM FG OVC002
     FM011500 VRB03KT 5SM BR SCT008=



000
FTUS42 KRAH 311913 AAA
TAFRWI
TAF AMD
KRWI 311913Z 3119/0118 VRB03KT P6SM VCSH BKN018 OVC024
     FM010000 VRB03KT 5SM BR OVC007
     FM010400 00000KT 2SM BR OVC004
     FM010600 00000KT 1/2SM FG OVC002
     FM011500 VRB03KT 5SM BR SCT008=



000
FTUS42 KRAH 311735
TAFINT
TAF
KINT 311735Z 3118/0118 VRB05KT P6SM BKN020 BKN030
      TEMPO 3118/3122 SCT020 BKN050
     FM312200 VRB05KT P6SM SCT250
     FM010700 VRB04KT 5SM BR SCT008
      TEMPO 0108/0112 2SM BR
     FM011400 VRB04KT P6SM SCT030=



000
FTUS42 KRAH 311735
TAFRDU
TAF
KRDU 311735Z 3118/0118 VRB05KT P6SM OVC007
     FM010000 VRB03KT 5SM BR OVC007
     FM010700 00000KT 2SM BR OVC005
      TEMPO 0108/0112 1SM BR OVC003
     FM011500 VRB03KT 5SM BR SCT012=



000
FTUS42 KRAH 311735
TAFRWI
TAF
KRWI 311735Z 3118/0118 VRB04KT P6SM VCSH BKN005 OVC010
     FM010000 VRB03KT 5SM BR OVC005
     FM010400 00000KT 2SM BR OVC004
     FM010600 00000KT 1/2SM FG OVC002
     FM011500 VRB03KT 5SM BR SCT008=



000
FTUS42 KRAH 311735
TAFGSO
TAF
KGSO 311735Z 3118/0118 36003KT P6SM BKN014 BKN050 BKN250
      TEMPO 3118/3122 SCT020 BKN050
     FM312200 VRB05KT P6SM SCT250
     FM010700 VRB04KT 5SM BR SCT008
      TEMPO 0108/0112 2SM BR
     FM011400 VRB04KT P6SM SCT030=



000
FTUS42 KRAH 311735
TAFFAY
TAF
KFAY 311735Z 3118/0118 15003KT P6SM FEW014 SCT025
     FM010000 VRB03KT 5SM BR OVC007
     FM010700 00000KT 2SM BR OVC005
      TEMPO 0108/0112 1/2SM FG OVC002
     FM011500 VRB03KT 5SM BR SCT012=



000
FTUS42 KRAH 311735
TAFRDU
TAF
KRDU 311735Z 3118/0118 VRB05KT P6SM OVC007
     FM010000 VRB03KT 5SM BR OVC007
     FM010700 00000KT 2SM BR OVC005
      TEMPO 0108/0112 1SM BR OVC003
     FM011500 VRB03KT 5SM BR SCT012=



000
FTUS42 KRAH 311735
TAFRWI
TAF
KRWI 311735Z 3118/0118 VRB04KT P6SM VCSH BKN005 OVC010
     FM010000 VRB03KT 5SM BR OVC005
     FM010400 00000KT 2SM BR OVC004
     FM010600 00000KT 1/2SM FG OVC002
     FM011500 VRB03KT 5SM BR SCT008=



000
FTUS42 KRAH 311735
TAFFAY
TAF
KFAY 311735Z 3118/0118 15003KT P6SM FEW014 SCT025
     FM010000 VRB03KT 5SM BR OVC007
     FM010700 00000KT 2SM BR OVC005
      TEMPO 0108/0112 1/2SM FG OVC002
     FM011500 VRB03KT 5SM BR SCT012=



000
FTUS42 KRAH 311735
TAFGSO
TAF
KGSO 311735Z 3118/0118 36003KT P6SM BKN014 BKN050 BKN250
      TEMPO 3118/3122 SCT020 BKN050
     FM312200 VRB05KT P6SM SCT250
     FM010700 VRB04KT 5SM BR SCT008
      TEMPO 0108/0112 2SM BR
     FM011400 VRB04KT P6SM SCT030=



000
FTUS42 KRAH 311735
TAFINT
TAF
KINT 311735Z 3118/0118 VRB05KT P6SM BKN020 BKN030
      TEMPO 3118/3122 SCT020 BKN050
     FM312200 VRB05KT P6SM SCT250
     FM010700 VRB04KT 5SM BR SCT008
      TEMPO 0108/0112 2SM BR
     FM011400 VRB04KT P6SM SCT030=



000
FTUS42 KRAH 311655 AAB
TAFRWI
TAF AMD
KRWI 311655Z 3117/0112 VRB06KT P6SM -RA BKN005 BKN009 OVC050
      TEMPO 3117/3118 3SM RA BR SCT020 OVC060
     FM311800 14006KT P6SM VCSH BKN012
     FM010600 23001KT 1/2SM FG OVC015
     FM010700 32001KT 1/2SM FG OVC003
     FM010800 00000KT 1/2SM FG OVC001=



000
FTUS42 KRAH 311655 AAB
TAFRWI
TAF AMD
KRWI 311655Z 3117/0112 VRB06KT P6SM -RA BKN005 BKN009 OVC050
      TEMPO 3117/3118 3SM RA BR SCT020 OVC060
     FM311800 14006KT P6SM VCSH BKN012
     FM010600 23001KT 1/2SM FG OVC015
     FM010700 32001KT 1/2SM FG OVC003
     FM010800 00000KT 1/2SM FG OVC001=



000
FTUS42 KRAH 311654 AAC
TAFRDU
TAF AMD
KRDU 311654Z 3117/0112 06004KT P6SM VCSH OVC007
     FM010500 00000KT 2SM BR OVC015
     FM010800 00000KT 2SM BR OVC007=



000
FTUS42 KRAH 311654 AAC
TAFRDU
TAF AMD
KRDU 311654Z 3117/0112 06004KT P6SM VCSH OVC007
     FM010500 00000KT 2SM BR OVC015
     FM010800 00000KT 2SM BR OVC007=



000
FTUS42 KRAH 311654 AAC
TAFRDU
TAF AMD
KRDU 311654Z 3117/0112 06004KT P6SM VCSH OVC007
     FM010500 00000KT 2SM BR OVC015
     FM010800 00000KT 2SM BR OVC007=



000
FTUS42 KRAH 311615 AAB
TAFGSO
TAF AMD
KGSO 311615Z 3116/0112 05003KT P6SM BKN007 OVC014
     FM312300 13005KT P6SM BKN100
     FM010000 VRB04KT P6SM BKN250=



000
FTUS42 KRAH 311615 AAB
TAFGSO
TAF AMD
KGSO 311615Z 3116/0112 05003KT P6SM BKN007 OVC014
     FM312300 13005KT P6SM BKN100
     FM010000 VRB04KT P6SM BKN250=



000
FTUS42 KRAH 311615 AAB
TAFGSO
TAF AMD
KGSO 311615Z 3116/0112 05003KT P6SM BKN007 OVC014
     FM312300 13005KT P6SM BKN100
     FM010000 VRB04KT P6SM BKN250=



000
FTUS42 KRAH 311615 AAB
TAFGSO
TAF AMD
KGSO 311615Z 3116/0112 05003KT P6SM BKN007 OVC014
     FM312300 13005KT P6SM BKN100
     FM010000 VRB04KT P6SM BKN250=



000
FTUS42 KRAH 311455 AAE
TAFFAY
TAF AMD
KFAY 311455Z 3115/0112 VRB04KT P6SM BKN008 BKN015 OVC035
      TEMPO 3115/3117 SCT008 SCT015 OVC035
     FM311700 11007KT P6SM VCSH BKN035 OVC050
      TEMPO 3117/3121 5SM SHRA OVC035
     FM010900 35003KT 4SM BR OVC003
     FM011000 35003KT 1 1/2SM BR OVC001=



000
FTUS42 KRAH 311455 AAE
TAFFAY
TAF AMD
KFAY 311455Z 3115/0112 VRB04KT P6SM BKN008 BKN015 OVC035
      TEMPO 3115/3117 SCT008 SCT015 OVC035
     FM311700 11007KT P6SM VCSH BKN035 OVC050
      TEMPO 3117/3121 5SM SHRA OVC035
     FM010900 35003KT 4SM BR OVC003
     FM011000 35003KT 1 1/2SM BR OVC001=



000
FTUS42 KRAH 311358 AAB
TAFRDU
TAF AMD
KRDU 311358Z 3114/0112 VRB05KT 3SM -RA BR FEW005 BKN035 OVC070
      TEMPO 3114/3116 6SM BR BKN005
     FM311600 17007KT P6SM VCSH BKN035
     FM010500 00000KT 2SM BR OVC015
     FM010800 00000KT 2SM BR OVC007=



000
FTUS42 KRAH 311358 AAB
TAFRDU
TAF AMD
KRDU 311358Z 3114/0112 VRB05KT 3SM -RA BR FEW005 BKN035 OVC070
      TEMPO 3114/3116 6SM BR BKN005
     FM311600 17007KT P6SM VCSH BKN035
     FM010500 00000KT 2SM BR OVC015
     FM010800 00000KT 2SM BR OVC007=



000
FTUS42 KRAH 311358 AAB
TAFRDU
TAF AMD
KRDU 311358Z 3114/0112 VRB05KT 3SM -RA BR FEW005 BKN035 OVC070
      TEMPO 3114/3116 6SM BR BKN005
     FM311600 17007KT P6SM VCSH BKN035
     FM010500 00000KT 2SM BR OVC015
     FM010800 00000KT 2SM BR OVC007=



000
FTUS42 KRAH 311342 AAA
TAFRWI
TAF AMD
KRWI 311342Z 3114/0112 VRB05KT 1SM +RA BR SCT005 BKN020 OVC060
      TEMPO 3114/3118 3SM RA BR SCT020 OVC060
     FM311800 14006KT P6SM VCSH BKN035
     FM010600 23001KT 1/2SM FG OVC015
     FM010700 32001KT 1/2SM FG OVC003
     FM010800 00000KT 1/2SM FG OVC001=



000
FTUS42 KRAH 311342 AAA
TAFRWI
TAF AMD
KRWI 311342Z 3114/0112 VRB05KT 1SM +RA BR SCT005 BKN020 OVC060
      TEMPO 3114/3118 3SM RA BR SCT020 OVC060
     FM311800 14006KT P6SM VCSH BKN035
     FM010600 23001KT 1/2SM FG OVC015
     FM010700 32001KT 1/2SM FG OVC003
     FM010800 00000KT 1/2SM FG OVC001=



000
FTUS42 KRAH 311342 AAA
TAFRWI
TAF AMD
KRWI 311342Z 3114/0112 VRB05KT 1SM +RA BR SCT005 BKN020 OVC060
      TEMPO 3114/3118 3SM RA BR SCT020 OVC060
     FM311800 14006KT P6SM VCSH BKN035
     FM010600 23001KT 1/2SM FG OVC015
     FM010700 32001KT 1/2SM FG OVC003
     FM010800 00000KT 1/2SM FG OVC001=



000
FTUS42 KRAH 311342 AAA
TAFRWI
TAF AMD
KRWI 311342Z 3114/0112 VRB05KT 1SM +RA BR SCT005 BKN020 OVC060
      TEMPO 3114/3118 3SM RA BR SCT020 OVC060
     FM311800 14006KT P6SM VCSH BKN035
     FM010600 23001KT 1/2SM FG OVC015
     FM010700 32001KT 1/2SM FG OVC003
     FM010800 00000KT 1/2SM FG OVC001=



000
FTUS42 KRAH 311341 AAD
TAFFAY
TAF AMD
KFAY 311341Z 3114/0112 VRB04KT 3SM RA BR BKN005 BKN035 OVC050
      TEMPO 3114/3115 1SM RA BKN015 BKN030
     FM311500 11007KT P6SM VCSH BKN035 OVC050
      TEMPO 3118/3121 5SM SHRA OVC035
     FM010900 35003KT 4SM BR OVC003
     FM011000 35003KT 1 1/2SM BR OVC001=



000
FTUS42 KRAH 311341 AAD
TAFFAY
TAF AMD
KFAY 311341Z 3114/0112 VRB04KT 3SM RA BR BKN005 BKN035 OVC050
      TEMPO 3114/3115 1SM RA BKN015 BKN030
     FM311500 11007KT P6SM VCSH BKN035 OVC050
      TEMPO 3118/3121 5SM SHRA OVC035
     FM010900 35003KT 4SM BR OVC003
     FM011000 35003KT 1 1/2SM BR OVC001=



000
FTUS42 KRAH 311337 AAA
TAFRDU
TAF AMD
KRDU 311337Z 3114/0112 VRB05KT 3SM -RA BR FEW005 BKN035 OVC070
      TEMPO 3114/3116 6SM BR
     FM311600 17007KT P6SM VCSH BKN035
     FM010500 00000KT 2SM BR OVC015
     FM010800 00000KT 2SM BR OVC007=



000
FTUS42 KRAH 311337 AAA
TAFRDU
TAF AMD
KRDU 311337Z 3114/0112 VRB05KT 3SM -RA BR FEW005 BKN035 OVC070
      TEMPO 3114/3116 6SM BR
     FM311600 17007KT P6SM VCSH BKN035
     FM010500 00000KT 2SM BR OVC015
     FM010800 00000KT 2SM BR OVC007=



000
FTUS42 KRAH 311333 AAC
TAFFAY
TAF AMD
KFAY 311333Z 3114/0112 VRB04KT 3SM RA BR BKN035 OVC050
      TEMPO 3114/3115 1SM RA BKN015 BKN030
     FM311500 11007KT P6SM VCSH BKN035 OVC050
      TEMPO 3118/3121 5SM SHRA OVC035
     FM010900 35003KT 4SM BR OVC003
     FM011000 35003KT 1 1/2SM BR OVC001=



000
FTUS42 KRAH 311333 AAC
TAFFAY
TAF AMD
KFAY 311333Z 3114/0112 VRB04KT 3SM RA BR BKN035 OVC050
      TEMPO 3114/3115 1SM RA BKN015 BKN030
     FM311500 11007KT P6SM VCSH BKN035 OVC050
      TEMPO 3118/3121 5SM SHRA OVC035
     FM010900 35003KT 4SM BR OVC003
     FM011000 35003KT 1 1/2SM BR OVC001=



000
FTUS42 KRAH 311322 AAB
TAFFAY
TAF AMD
KFAY 311322Z 3113/0112 VRB04KT 1 1/2SM RA BR BKN003 BKN035 OVC050
      TEMPO 3113/3115 3SM RA BKN015 BKN030
     FM311500 11007KT P6SM VCSH BKN035 OVC050
      TEMPO 3118/3121 5SM SHRA OVC035
     FM010900 35003KT 4SM BR OVC003
     FM011000 35003KT 1 1/2SM BR OVC001=



000
FTUS42 KRAH 311322 AAB
TAFFAY
TAF AMD
KFAY 311322Z 3113/0112 VRB04KT 1 1/2SM RA BR BKN003 BKN035 OVC050
      TEMPO 3113/3115 3SM RA BKN015 BKN030
     FM311500 11007KT P6SM VCSH BKN035 OVC050
      TEMPO 3118/3121 5SM SHRA OVC035
     FM010900 35003KT 4SM BR OVC003
     FM011000 35003KT 1 1/2SM BR OVC001=



000
FTUS42 KRAH 311322 AAB
TAFFAY
TAF AMD
KFAY 311322Z 3113/0112 VRB04KT 1 1/2SM RA BR BKN003 BKN035 OVC050
      TEMPO 3113/3115 3SM RA BKN015 BKN030
     FM311500 11007KT P6SM VCSH BKN035 OVC050
      TEMPO 3118/3121 5SM SHRA OVC035
     FM010900 35003KT 4SM BR OVC003
     FM011000 35003KT 1 1/2SM BR OVC001=



000
FTUS42 KRAH 311253 AAA
TAFFAY
TAF AMD
KFAY 311253Z 3113/0112 VRB04KT 1 1/2SM RA BR FEW005 BKN035 OVC050
      TEMPO 3113/3115 3SM RA BKN015 BKN030
     FM311500 11007KT P6SM VCSH BKN035 OVC050
      TEMPO 3118/3121 5SM SHRA OVC035
     FM010900 35003KT 4SM BR OVC003
     FM011000 35003KT 1 1/2SM BR OVC001=



000
FTUS42 KRAH 311253 AAA
TAFFAY
TAF AMD
KFAY 311253Z 3113/0112 VRB04KT 1 1/2SM RA BR FEW005 BKN035 OVC050
      TEMPO 3113/3115 3SM RA BKN015 BKN030
     FM311500 11007KT P6SM VCSH BKN035 OVC050
      TEMPO 3118/3121 5SM SHRA OVC035
     FM010900 35003KT 4SM BR OVC003
     FM011000 35003KT 1 1/2SM BR OVC001=



000
FTUS42 KRAH 311253 AAA
TAFFAY
TAF AMD
KFAY 311253Z 3113/0112 VRB04KT 1 1/2SM RA BR FEW005 BKN035 OVC050
      TEMPO 3113/3115 3SM RA BKN015 BKN030
     FM311500 11007KT P6SM VCSH BKN035 OVC050
      TEMPO 3118/3121 5SM SHRA OVC035
     FM010900 35003KT 4SM BR OVC003
     FM011000 35003KT 1 1/2SM BR OVC001=



000
FTUS42 KRAH 311253 AAA
TAFFAY
TAF AMD
KFAY 311253Z 3113/0112 VRB04KT 1 1/2SM RA BR FEW005 BKN035 OVC050
      TEMPO 3113/3115 3SM RA BKN015 BKN030
     FM311500 11007KT P6SM VCSH BKN035 OVC050
      TEMPO 3118/3121 5SM SHRA OVC035
     FM010900 35003KT 4SM BR OVC003
     FM011000 35003KT 1 1/2SM BR OVC001=



000
FTUS42 KRAH 311251 AAA
TAFGSO
TAF AMD
KGSO 311251Z 3113/0112 VRB05KT 2SM -RA BR BKN003 OVC025
      TEMPO 3113/3116 6SM BR SCT003 BKN025
     FM311600 13005KT P6SM SCT035 BKN050
     FM312300 13005KT P6SM BKN100
     FM010000 VRB04KT P6SM BKN250=



000
FTUS42 KRAH 311251 AAA
TAFGSO
TAF AMD
KGSO 311251Z 3113/0112 VRB05KT 2SM -RA BR BKN003 OVC025
      TEMPO 3113/3116 6SM BR SCT003 BKN025
     FM311600 13005KT P6SM SCT035 BKN050
     FM312300 13005KT P6SM BKN100
     FM010000 VRB04KT P6SM BKN250=



000
FTUS42 KRAH 311144
TAFRDU
TAF
KRDU 311144Z 3112/0112 VRB04KT 3SM -RA BR OVC015
      TEMPO 3112/3115 1SM BR BKN007
     FM311900 17007KT P6SM VCSH BKN035
     FM010500 00000KT 2SM BR OVC015
     FM010800 00000KT 2SM BR OVC007=



000
FTUS42 KRAH 311144
TAFINT
TAF
KINT 311144Z 3112/0112 VRB04KT P6SM -RA SCT015 BKN030
      TEMPO 3112/3113 4SM -RA BR OVC015
     FM311900 13005KT P6SM BKN050
     FM312300 13005KT P6SM BKN100
     FM010000 VRB04KT P6SM BKN250=



000
FTUS42 KRAH 311144
TAFGSO
TAF
KGSO 311144Z 3112/0112 VRB04KT P6SM -RA SCT015 BKN030
      TEMPO 3112/3113 4SM -RA BR OVC015
     FM311900 13005KT P6SM BKN050
     FM312300 13005KT P6SM BKN100
     FM010000 VRB04KT P6SM BKN250=



000
FTUS42 KRAH 311144
TAFINT
TAF
KINT 311144Z 3112/0112 VRB04KT P6SM -RA SCT015 BKN030
      TEMPO 3112/3113 4SM -RA BR OVC015
     FM311900 13005KT P6SM BKN050
     FM312300 13005KT P6SM BKN100
     FM010000 VRB04KT P6SM BKN250=



000
FTUS42 KRAH 311144
TAFGSO
TAF
KGSO 311144Z 3112/0112 VRB04KT P6SM -RA SCT015 BKN030
      TEMPO 3112/3113 4SM -RA BR OVC015
     FM311900 13005KT P6SM BKN050
     FM312300 13005KT P6SM BKN100
     FM010000 VRB04KT P6SM BKN250=



000
FTUS42 KRAH 311144
TAFFAY
TAF
KFAY 311144Z 3112/0112 VRB03KT 6SM -RA BR SCT015 BKN035
      TEMPO 3112/3116 3SM RA OVC015
     FM311800 11007KT P6SM VCSH OVC050
      TEMPO 3118/3121 5SM SHRA OVC035
     FM010900 35003KT 4SM BR OVC003
     FM011000 35003KT 1 1/2SM BR OVC001=



000
FTUS42 KRAH 311144
TAFRDU
TAF
KRDU 311144Z 3112/0112 VRB04KT 3SM -RA BR OVC015
      TEMPO 3112/3115 1SM BR BKN007
     FM311900 17007KT P6SM VCSH BKN035
     FM010500 00000KT 2SM BR OVC015
     FM010800 00000KT 2SM BR OVC007=



000
FTUS42 KRAH 311144
TAFINT
TAF
KINT 311144Z 3112/0112 VRB04KT P6SM -RA SCT015 BKN030
      TEMPO 3112/3113 4SM -RA BR OVC015
     FM311900 13005KT P6SM BKN050
     FM312300 13005KT P6SM BKN100
     FM010000 VRB04KT P6SM BKN250=



000
FTUS42 KRAH 311144
TAFGSO
TAF
KGSO 311144Z 3112/0112 VRB04KT P6SM -RA SCT015 BKN030
      TEMPO 3112/3113 4SM -RA BR OVC015
     FM311900 13005KT P6SM BKN050
     FM312300 13005KT P6SM BKN100
     FM010000 VRB04KT P6SM BKN250=



000
FTUS42 KRAH 311144
TAFRDU
TAF
KRDU 311144Z 3112/0112 VRB04KT 3SM -RA BR OVC015
      TEMPO 3112/3115 1SM BR BKN007
     FM311900 17007KT P6SM VCSH BKN035
     FM010500 00000KT 2SM BR OVC015
     FM010800 00000KT 2SM BR OVC007=



000
FTUS42 KRAH 311144
TAFFAY
TAF
KFAY 311144Z 3112/0112 VRB03KT 6SM -RA BR SCT015 BKN035
      TEMPO 3112/3116 3SM RA OVC015
     FM311800 11007KT P6SM VCSH OVC050
      TEMPO 3118/3121 5SM SHRA OVC035
     FM010900 35003KT 4SM BR OVC003
     FM011000 35003KT 1 1/2SM BR OVC001=



000
FTUS42 KRAH 311144
TAFRWI
TAF
KRWI 311144Z 3112/0112 VRB03KT P6SM -RA SCT015 OVC035
      TEMPO 3112/3116 3SM RA BR BKN015
     FM311800 14006KT P6SM VCSH BKN035
     FM010600 23001KT 1/2SM FG OVC015
     FM010700 32001KT 1/2SM FG OVC003
     FM010800 00000KT 1/2SM FG OVC001=



000
FTUS42 KRAH 311144
TAFRWI
TAF
KRWI 311144Z 3112/0112 VRB03KT P6SM -RA SCT015 OVC035
      TEMPO 3112/3116 3SM RA BR BKN015
     FM311800 14006KT P6SM VCSH BKN035
     FM010600 23001KT 1/2SM FG OVC015
     FM010700 32001KT 1/2SM FG OVC003
     FM010800 00000KT 1/2SM FG OVC001=



000
FTUS42 KRAH 311144
TAFRWI
TAF
KRWI 311144Z 3112/0112 VRB03KT P6SM -RA SCT015 OVC035
      TEMPO 3112/3116 3SM RA BR BKN015
     FM311800 14006KT P6SM VCSH BKN035
     FM010600 23001KT 1/2SM FG OVC015
     FM010700 32001KT 1/2SM FG OVC003
     FM010800 00000KT 1/2SM FG OVC001=



000
FTUS42 KRAH 311144
TAFFAY
TAF
KFAY 311144Z 3112/0112 VRB03KT 6SM -RA BR SCT015 BKN035
      TEMPO 3112/3116 3SM RA OVC015
     FM311800 11007KT P6SM VCSH OVC050
      TEMPO 3118/3121 5SM SHRA OVC035
     FM010900 35003KT 4SM BR OVC003
     FM011000 35003KT 1 1/2SM BR OVC001=



000
FTUS42 KRAH 311144
TAFRWI
TAF
KRWI 311144Z 3112/0112 VRB03KT P6SM -RA SCT015 OVC035
      TEMPO 3112/3116 3SM RA BR BKN015
     FM311800 14006KT P6SM VCSH BKN035
     FM010600 23001KT 1/2SM FG OVC015
     FM010700 32001KT 1/2SM FG OVC003
     FM010800 00000KT 1/2SM FG OVC001=



000
FTUS42 KRAH 311144
TAFFAY
TAF
KFAY 311144Z 3112/0112 VRB03KT 6SM -RA BR SCT015 BKN035
      TEMPO 3112/3116 3SM RA OVC015
     FM311800 11007KT P6SM VCSH OVC050
      TEMPO 3118/3121 5SM SHRA OVC035
     FM010900 35003KT 4SM BR OVC003
     FM011000 35003KT 1 1/2SM BR OVC001=



000
FTUS42 KRAH 311144
TAFGSO
TAF
KGSO 311144Z 3112/0112 VRB04KT P6SM -RA SCT015 BKN030
      TEMPO 3112/3113 4SM -RA BR OVC015
     FM311900 13005KT P6SM BKN050
     FM312300 13005KT P6SM BKN100
     FM010000 VRB04KT P6SM BKN250=



000
FTUS42 KRAH 311144
TAFINT
TAF
KINT 311144Z 3112/0112 VRB04KT P6SM -RA SCT015 BKN030
      TEMPO 3112/3113 4SM -RA BR OVC015
     FM311900 13005KT P6SM BKN050
     FM312300 13005KT P6SM BKN100
     FM010000 VRB04KT P6SM BKN250=



000
FTUS42 KRAH 311144
TAFRDU
TAF
KRDU 311144Z 3112/0112 VRB04KT 3SM -RA BR OVC015
      TEMPO 3112/3115 1SM BR BKN007
     FM311900 17007KT P6SM VCSH BKN035
     FM010500 00000KT 2SM BR OVC015
     FM010800 00000KT 2SM BR OVC007=



000
FTUS42 KRAH 311047 AAB
TAFFAY
TAF AMD
KFAY 311047Z 3111/0106 VRB03KT 6SM -RA BR SCT015 BKN035
      TEMPO 3111/3115 3SM RA OVC015
     FM311800 11007KT P6SM VCSH OVC050
      TEMPO 3118/3121 5SM SHRA OVC035=



000
FTUS42 KRAH 311047 AAB
TAFFAY
TAF AMD
KFAY 311047Z 3111/0106 VRB03KT 6SM -RA BR SCT015 BKN035
      TEMPO 3111/3115 3SM RA OVC015
     FM311800 11007KT P6SM VCSH OVC050
      TEMPO 3118/3121 5SM SHRA OVC035=



000
FTUS42 KRAH 311046 AAB
TAFRDU
TAF AMD
KRDU 311046Z 3111/0106 VRB04KT 3SM -RA BR OVC015
      TEMPO 3111/3113 2SM BR BKN007
     FM311900 17007KT P6SM VCSH BKN035
     FM010500 00000KT 2SM BR OVC015=



000
FTUS42 KRAH 311046 AAB
TAFRDU
TAF AMD
KRDU 311046Z 3111/0106 VRB04KT 3SM -RA BR OVC015
      TEMPO 3111/3113 2SM BR BKN007
     FM311900 17007KT P6SM VCSH BKN035
     FM010500 00000KT 2SM BR OVC015=



000
FTUS42 KRAH 311046 AAB
TAFRDU
TAF AMD
KRDU 311046Z 3111/0106 VRB04KT 3SM -RA BR OVC015
      TEMPO 3111/3113 2SM BR BKN007
     FM311900 17007KT P6SM VCSH BKN035
     FM010500 00000KT 2SM BR OVC015=



000
FTUS42 KRAH 310933 AAA
TAFRDU
TAF AMD
KRDU 310933Z 3110/0106 VRB03KT 6SM -RA SCT015 OVC050
     FM311100 10005KT 3SM -RA BR OVC015
     FM311900 17007KT P6SM VCSH BKN025
     FM312200 14006KT P6SM BKN050=



000
FTUS42 KRAH 310933 AAA
TAFRDU
TAF AMD
KRDU 310933Z 3110/0106 VRB03KT 6SM -RA SCT015 OVC050
     FM311100 10005KT 3SM -RA BR OVC015
     FM311900 17007KT P6SM VCSH BKN025
     FM312200 14006KT P6SM BKN050=



000
FTUS42 KRAH 310902 AAA
TAFINT
TAF AMD
KINT 310902Z 3109/0106 VRB04KT P6SM -RA SCT015 BKN030
      TEMPO 3109/3113 4SM -RA BR OVC015
     FM311900 13005KT P6SM BKN050
     FM312300 13005KT P6SM BKN100
     FM010000 VRB04KT P6SM BKN250=



000
FTUS42 KRAH 310902 AAC
TAFGSO
TAF AMD
KGSO 310902Z 3109/0106 VRB04KT P6SM -RA SCT015 BKN030
      TEMPO 3109/3113 4SM -RA BR OVC015
     FM311900 13005KT P6SM BKN050
     FM312300 13005KT P6SM BKN100
     FM010000 VRB04KT P6SM BKN250=



000
FTUS42 KRAH 310834 AAB
TAFGSO
TAF AMD
KGSO 310834Z 3109/0106 VRB04KT 4SM -RA BR OVC015
      TEMPO 3109/3113 2SM RA BR OVC007
     FM311600 17007KT P6SM BKN025
     FM311900 13005KT P6SM BKN050
     FM312300 13005KT P6SM BKN100
     FM010000 VRB04KT P6SM BKN250=



000
FTUS42 KRAH 310834 AAB
TAFGSO
TAF AMD
KGSO 310834Z 3109/0106 VRB04KT 4SM -RA BR OVC015
      TEMPO 3109/3113 2SM RA BR OVC007
     FM311600 17007KT P6SM BKN025
     FM311900 13005KT P6SM BKN050
     FM312300 13005KT P6SM BKN100
     FM010000 VRB04KT P6SM BKN250=



000
FTUS42 KRAH 310834 AAB
TAFGSO
TAF AMD
KGSO 310834Z 3109/0106 VRB04KT 4SM -RA BR OVC015
      TEMPO 3109/3113 2SM RA BR OVC007
     FM311600 17007KT P6SM BKN025
     FM311900 13005KT P6SM BKN050
     FM312300 13005KT P6SM BKN100
     FM010000 VRB04KT P6SM BKN250=



000
FTUS42 KRAH 310834 AAB
TAFGSO
TAF AMD
KGSO 310834Z 3109/0106 VRB04KT 4SM -RA BR OVC015
      TEMPO 3109/3113 2SM RA BR OVC007
     FM311600 17007KT P6SM BKN025
     FM311900 13005KT P6SM BKN050
     FM312300 13005KT P6SM BKN100
     FM010000 VRB04KT P6SM BKN250=



000
FTUS42 KRAH 310805 AAA
TAFFAY
TAF AMD
KFAY 310805Z 3108/0106 VRB03KT 6SM -RA BR BKN025
      TEMPO 3109/3112 2SM RA OVC010
     FM311200 06003KT 2SM -RA BR OVC007
     FM311800 11007KT P6SM OVC050
      TEMPO 3118/3121 5SM SHRA OVC035=



000
FTUS42 KRAH 310805 AAA
TAFFAY
TAF AMD
KFAY 310805Z 3108/0106 VRB03KT 6SM -RA BR BKN025
      TEMPO 3109/3112 2SM RA OVC010
     FM311200 06003KT 2SM -RA BR OVC007
     FM311800 11007KT P6SM OVC050
      TEMPO 3118/3121 5SM SHRA OVC035=



000
FTUS42 KRAH 310803 AAA
TAFGSO
TAF AMD
KGSO 310803Z 3108/0106 VRB04KT 6SM -RA BR OVC015
      TEMPO 3109/3113 4SM RA BR OVC007
     FM311600 17007KT P6SM BKN025
     FM311900 13005KT P6SM BKN050
     FM312300 13005KT P6SM BKN100
     FM010000 VRB04KT P6SM BKN250=



000
FTUS42 KRAH 310803 AAA
TAFGSO
TAF AMD
KGSO 310803Z 3108/0106 VRB04KT 6SM -RA BR OVC015
      TEMPO 3109/3113 4SM RA BR OVC007
     FM311600 17007KT P6SM BKN025
     FM311900 13005KT P6SM BKN050
     FM312300 13005KT P6SM BKN100
     FM010000 VRB04KT P6SM BKN250=



    US Dept of Commerce
    National Oceanic and Atmospheric Administration
    National Weather Service
    1325 East West Highway
    Silver Spring, MD 20910
    Page Author: NWS Internet Services Team
Disclaimer
Information Quality
Credits
Glossary
Privacy Policy
Freedom of Information Act (FOIA)
About Us
Career Opportunities